Home > Products > Valid Products > TAF

000
FTUS42 KFFC 060539
TAFATL
TAF
KATL 060539Z 0606/0712 24006KT P6SM FEW060 SCT200
     FM060800 24004KT 6SM BR BKN012
     FM061000 25004KT 4SM BR BKN007
     FM061500 28008KT P6SM BKN012
     FM061700 24010KT P6SM BKN040 PROB30 0619/0623 5SM TSRA BKN025CB
     FM070200 28006KT P6SM SCT045 BKN200
     FM070600 29004KT P6SM SCT200=



000
FTUS42 KFFC 060539
TAFRYY
TAF
KRYY 060539Z 0606/0706 24004KT P6SM SCT200
     FM060800 24004KT 6SM BR BKN012
     FM061000 25004KT 4SM BR BKN007
     FM061500 28008KT P6SM BKN012
     FM061700 24010KT P6SM BKN040 PROB30 0619/0623 5SM TSRA BKN025CB
     FM070200 28006KT P6SM SCT045 BKN200
      AMD NOT SKED TIL 061200=



000
FTUS42 KFFC 060539
TAFPDK
TAF
KPDK 060539Z 0606/0706 25004KT P6SM SCT200
     FM060800 24004KT 6SM BR BKN012
     FM061000 25004KT 4SM BR BKN007
     FM061500 28008KT P6SM BKN012
     FM061700 24010KT P6SM BKN040 PROB30 0619/0623 5SM TSRA BKN025CB
     FM070200 28006KT P6SM SCT045 BKN200=



000
FTUS42 KFFC 060539
TAFMCN
TAF
KMCN 060539Z 0606/0706 22004KT P6SM SCT100
     FM060800 VRB03KT 4SM BR SCT006 BKN015
     FM061400 26006KT P6SM SCT030
     FM061700 24005KT P6SM BKN040 PROB30 0619/0623 5SM TSRA BKN025CB
     FM070200 28006KT P6SM SCT045 BKN200=



000
FTUS42 KFFC 060539
TAFCSG
TAF
KCSG 060539Z 0606/0706 21004KT P6SM BKN008 BKN020
     FM060900 25004KT 4SM BR BKN005
     FM061400 28005KT P6SM BKN030
     FM061700 24005KT P6SM BKN040 PROB30 0619/0623 5SM TSRA BKN025CB
     FM070200 28006KT P6SM SCT045 BKN200=



000
FTUS42 KFFC 060539
TAFFTY
TAF
KFTY 060539Z 0606/0706 23004KT P6SM SCT200
     FM060800 24004KT 6SM BR BKN012
     FM061000 25004KT 4SM BR BKN007
     FM061500 28008KT P6SM BKN012
     FM061700 24010KT P6SM BKN040 PROB30 0619/0623 5SM TSRA BKN025CB
     FM070200 28006KT P6SM SCT045 BKN200=



000
FTUS42 KFFC 060539
TAFAHN
TAF
KAHN 060539Z 0606/0706 24006KT P6SM FEW040 SCT200
     FM060800 24004KT 6SM BR BKN012
     FM061000 25004KT 4SM BR BKN007
     FM061500 28008KT P6SM BKN012
     FM061700 24010KT P6SM BKN040 PROB30 0619/0623 5SM TSRA BKN025CB
     FM070200 28006KT P6SM SCT045 BKN200=



000
FTUS42 KFFC 060355 AAB
TAFATL
TAF AMD
KATL 060355Z 0604/0706 24006KT P6SM FEW035 BKN250
     FM060800 24004KT 6SM BR BKN012
     FM061000 25004KT 4SM BR BKN007
     FM061500 28008KT P6SM BKN012
     FM061700 24010KT P6SM BKN040 PROB30 0619/0623 5SM TSRA BKN025CB
     FM070200 28006KT P6SM SCT045 BKN250=



000
FTUS42 KFFC 060301 AAA
TAFCSG
TAF AMD
KCSG 060301Z 0603/0624 22006KT P6SM BKN025
     FM060600 21004KT P6SM BKN015
     FM060900 25004KT 4SM BR BKN008
     FM061400 28005KT P6SM BKN030
     FM061700 24005KT P6SM BKN040 PROB30 0619/0623 5SM TSRA
      BKN025CB=



000
FTUS42 KFFC 060157 AAA
TAFATL
TAF AMD
KATL 060157Z 0602/0706 24006KT P6SM FEW035 BKN250
     FM060800 24004KT 6SM BR BKN012
     FM061000 25004KT 4SM BR BKN007
     FM061500 28008KT P6SM BKN012
     FM061700 24010KT P6SM BKN040 PROB30 0619/0623 5SM TSRA BKN025CB
     FM070200 28006KT P6SM SCT045 BKN250=



000
FTUS42 KFFC 052334
TAFFTY
TAF
KFTY 052334Z 0600/0624 21008KT P6SM SCT050 SCT120
     FM060200 25005KT P6SM SCT100 BKN250
     FM060800 24004KT 6SM BR BKN012
     FM061000 25004KT 4SM BR BKN007
     FM061500 28006KT P6SM BKN012
     FM061700 24005KT P6SM BKN040 PROB30 0619/0623 5SM TSRA
      BKN025CB=



000
FTUS42 KFFC 052334
TAFCSG
TAF
KCSG 052334Z 0600/0624 22006KT P6SM VCSH SCT030 BKN040
     FM060100 21004KT P6SM BKN050
     FM061000 25004KT 4SM BR SCT006 BKN012
     FM061400 28005KT P6SM BKN030
     FM061700 24005KT P6SM BKN040 PROB30 0619/0623 5SM TSRA
      BKN025CB=



000
FTUS42 KFFC 052334
TAFAHN
TAF
KAHN 052334Z 0600/0624 22006KT P6SM FEW050 SCT100
     FM060200 25005KT P6SM SCT100 BKN250
     FM060800 23004KT 6SM BR BKN012
     FM061000 VRB03KT 3SM BR BKN007
     FM061400 25005KT P6SM SCT007 BKN012
     FM061700 24005KT P6SM BKN040 PROB30 0619/0623 5SM TSRA
      BKN025CB=



000
FTUS42 KFFC 052334
TAFATL
TAF
KATL 052334Z 0600/0706 24010KT P6SM FEW045 SCT100
     FM060200 25005KT P6SM SCT100 BKN250
     FM060800 24004KT 6SM BR BKN012
     FM061000 25004KT 4SM BR BKN007
     FM061500 28008KT P6SM BKN012
     FM061700 24010KT P6SM BKN040 PROB30 0619/0623 5SM TSRA BKN025CB
     FM070200 28006KT P6SM SCT045 BKN250=



000
FTUS42 KFFC 052334
TAFPDK
TAF
KPDK 052334Z 0600/0624 24006KT P6SM FEW050 SCT100
     FM060200 25005KT P6SM SCT100 BKN250
     FM060800 24004KT 6SM BR BKN012
     FM061000 25004KT 4SM BR BKN007
     FM061500 28006KT P6SM BKN012
     FM061700 24005KT P6SM BKN040 PROB30 0619/0623 5SM TSRA
      BKN025CB=



000
FTUS42 KFFC 052334
TAFRYY
TAF
KRYY 052334Z 0600/0624 22010G16KT P6SM SCT050 BKN100
     FM060200 25005KT P6SM SCT100 BKN250
     FM060800 24004KT 6SM BR BKN012
     FM061000 25004KT 4SM BR BKN007
     FM061500 28006KT P6SM BKN012
     FM061700 24005KT P6SM BKN040 PROB30 0619/0623 5SM TSRA BKN025CB
      AMD NOT SKED 0604/0612=



000
FTUS42 KFFC 052334
TAFMCN
TAF
KMCN 052334Z 0600/0624 23006KT P6SM FEW040 SCT100
     FM060800 VRB03KT 4SM BR SCT006 BKN015
     FM061400 26006KT P6SM SCT030
     FM061700 24005KT P6SM BKN040 PROB30 0619/0623 5SM TSRA
      BKN025CB=



000
FTUS42 KFFC 052334
TAFMCN
TAF
KMCN 052334Z 0600/0624 23006KT P6SM FEW040 SCT100
     FM060800 VRB03KT 4SM BR SCT006 BKN015
     FM061400 26006KT P6SM SCT030
     FM061700 24005KT P6SM BKN040 PROB30 0619/0623 5SM TSRA
      BKN025CB=



000
FTUS42 KFFC 052334
TAFAHN
TAF
KAHN 052334Z 0600/0624 22006KT P6SM FEW050 SCT100
     FM060200 25005KT P6SM SCT100 BKN250
     FM060800 23004KT 6SM BR BKN012
     FM061000 VRB03KT 3SM BR BKN007
     FM061400 25005KT P6SM SCT007 BKN012
     FM061700 24005KT P6SM BKN040 PROB30 0619/0623 5SM TSRA
      BKN025CB=



000
FTUS42 KFFC 052334
TAFCSG
TAF
KCSG 052334Z 0600/0624 22006KT P6SM VCSH SCT030 BKN040
     FM060100 21004KT P6SM BKN050
     FM061000 25004KT 4SM BR SCT006 BKN012
     FM061400 28005KT P6SM BKN030
     FM061700 24005KT P6SM BKN040 PROB30 0619/0623 5SM TSRA
      BKN025CB=



000
FTUS42 KFFC 052334
TAFATL
TAF
KATL 052334Z 0600/0706 24010KT P6SM FEW045 SCT100
     FM060200 25005KT P6SM SCT100 BKN250
     FM060800 24004KT 6SM BR BKN012
     FM061000 25004KT 4SM BR BKN007
     FM061500 28008KT P6SM BKN012
     FM061700 24010KT P6SM BKN040 PROB30 0619/0623 5SM TSRA BKN025CB
     FM070200 28006KT P6SM SCT045 BKN250=



000
FTUS42 KFFC 052334
TAFPDK
TAF
KPDK 052334Z 0600/0624 24006KT P6SM FEW050 SCT100
     FM060200 25005KT P6SM SCT100 BKN250
     FM060800 24004KT 6SM BR BKN012
     FM061000 25004KT 4SM BR BKN007
     FM061500 28006KT P6SM BKN012
     FM061700 24005KT P6SM BKN040 PROB30 0619/0623 5SM TSRA
      BKN025CB=



000
FTUS42 KFFC 052334
TAFRYY
TAF
KRYY 052334Z 0600/0624 22010G16KT P6SM SCT050 BKN100
     FM060200 25005KT P6SM SCT100 BKN250
     FM060800 24004KT 6SM BR BKN012
     FM061000 25004KT 4SM BR BKN007
     FM061500 28006KT P6SM BKN012
     FM061700 24005KT P6SM BKN040 PROB30 0619/0623 5SM TSRA BKN025CB
      AMD NOT SKED 0604/0612=



000
FTUS42 KFFC 052334
TAFFTY
TAF
KFTY 052334Z 0600/0624 21008KT P6SM SCT050 SCT120
     FM060200 25005KT P6SM SCT100 BKN250
     FM060800 24004KT 6SM BR BKN012
     FM061000 25004KT 4SM BR BKN007
     FM061500 28006KT P6SM BKN012
     FM061700 24005KT P6SM BKN040 PROB30 0619/0623 5SM TSRA
      BKN025CB=



000
FTUS42 KFFC 052220 AAB
TAFRYY
TAF AMD
KRYY 052220Z 0522/0618 26010KT P6SM VCSH SCT040 BKN100
     FM060000 22005KT P6SM SCT050 BKN100
     FM060800 24003KT 6SM BR BKN012
     FM061000 25004KT 3SM BR BKN008
     FM061400 27006KT P6SM BKN010
     FM061600 27006KT P6SM BKN040=



000
FTUS42 KFFC 052217 AAB
TAFPDK
TAF AMD
KPDK 052217Z 0522/0618 25008KT P6SM SCT040 BKN120
     FM060000 22005KT P6SM SCT050 BKN100
     FM060800 25003KT 5SM BR BKN012
     FM061000 26004KT 4SM BR BKN008
     FM061400 26006KT P6SM SCT008 BKN012
     FM061600 26006KT P6SM BKN040=



000
FTUS42 KFFC 052214 AAB
TAFFTY
TAF AMD
KFTY 052214Z 0522/0618 24008KT P6SM SCT035 BKN120
     FM060000 21006KT P6SM SCT050 BKN100
     FM060800 24003KT 5SM BR BKN012
     FM061000 25004KT 4SM BR BKN008
     FM061400 26005KT P6SM SCT008 BKN012
     FM061600 26006KT P6SM BKN040=



000
FTUS42 KFFC 052214 AAB
TAFFTY
TAF AMD
KFTY 052214Z 0522/0618 24008KT P6SM SCT035 BKN120
     FM060000 21006KT P6SM SCT050 BKN100
     FM060800 24003KT 5SM BR BKN012
     FM061000 25004KT 4SM BR BKN008
     FM061400 26005KT P6SM SCT008 BKN012
     FM061600 26006KT P6SM BKN040=



000
FTUS42 KFFC 052155 AAB
TAFATL
TAF AMD
KATL 052155Z 0522/0624 24009G15KT P6SM SCT040 BKN120
     FM060000 21006KT P6SM SCT040 BKN100
     FM060800 24003KT 6SM BR BKN012
     FM061000 25003KT 4SM BR BKN007
     FM061500 28005KT P6SM BKN012
     FM061700 24005KT P6SM BKN040 PROB30 0617/0623 5SM TSRA
      BKN025CB=



000
FTUS42 KFFC 051944 AAA
TAFRYY
TAF AMD
KRYY 051944Z 0520/0618 26008KT P6SM VCSH SCT025 BKN040
      TEMPO 0520/0523 5SM TSRA BKN025CB
     FM052300 22006KT P6SM SCT040 BKN100
     FM060800 24003KT 6SM BR BKN012
     FM061000 25004KT 3SM BR BKN008
     FM061400 27006KT P6SM BKN010
     FM061600 27006KT P6SM BKN040=



000
FTUS42 KFFC 051944 AAA
TAFRYY
TAF AMD
KRYY 051944Z 0520/0618 26008KT P6SM VCSH SCT025 BKN040
      TEMPO 0520/0523 5SM TSRA BKN025CB
     FM052300 22006KT P6SM SCT040 BKN100
     FM060800 24003KT 6SM BR BKN012
     FM061000 25004KT 3SM BR BKN008
     FM061400 27006KT P6SM BKN010
     FM061600 27006KT P6SM BKN040=



000
FTUS42 KFFC 051943 AAA
TAFFTY
TAF AMD
KFTY 051943Z 0520/0618 24008KT P6SM VCSH SCT035 BKN120
      TEMPO 0520/0523 5SM TSRA BKN025CB
     FM052300 21006KT P6SM SCT050 BKN100
     FM060800 24003KT 5SM BR BKN012
     FM061000 25004KT 4SM BR BKN008
     FM061400 26005KT P6SM SCT008 BKN012
     FM061600 26006KT P6SM BKN040=



000
FTUS42 KFFC 051943 AAA
TAFFTY
TAF AMD
KFTY 051943Z 0520/0618 24008KT P6SM VCSH SCT035 BKN120
      TEMPO 0520/0523 5SM TSRA BKN025CB
     FM052300 21006KT P6SM SCT050 BKN100
     FM060800 24003KT 5SM BR BKN012
     FM061000 25004KT 4SM BR BKN008
     FM061400 26005KT P6SM SCT008 BKN012
     FM061600 26006KT P6SM BKN040=



000
FTUS42 KFFC 051943 AAA
TAFATL
TAF AMD
KATL 051943Z 0520/0624 24009G15KT P6SM VCSH SCT035 BKN120
      TEMPO 0520/0523 5SM TSRA BKN025CB
     FM052300 21004KT P6SM SCT040 BKN100
     FM060800 24003KT 6SM BR BKN012
     FM061000 25003KT 4SM BR BKN007
     FM061500 28005KT P6SM BKN012
     FM061700 24005KT P6SM BKN040 PROB30 0617/0623 5SM TSRA
      BKN025CB=



000
FTUS42 KFFC 051943 AAA
TAFPDK
TAF AMD
KPDK 051943Z 0520/0618 25008KT P6SM VCSH SCT035 BKN120
      TEMPO 0520/0523 5SM TSRA BKN025CB
     FM052300 22006KT P6SM SCT050 BKN100
     FM060800 25003KT 5SM BR BKN012
     FM061000 26004KT 4SM BR BKN008
     FM061400 26006KT P6SM SCT008 BKN012
     FM061600 26006KT P6SM BKN040=



000
FTUS42 KFFC 051943 AAA
TAFPDK
TAF AMD
KPDK 051943Z 0520/0618 25008KT P6SM VCSH SCT035 BKN120
      TEMPO 0520/0523 5SM TSRA BKN025CB
     FM052300 22006KT P6SM SCT050 BKN100
     FM060800 25003KT 5SM BR BKN012
     FM061000 26004KT 4SM BR BKN008
     FM061400 26006KT P6SM SCT008 BKN012
     FM061600 26006KT P6SM BKN040=



000
FTUS42 KFFC 051943 AAA
TAFATL
TAF AMD
KATL 051943Z 0520/0624 24009G15KT P6SM VCSH SCT035 BKN120
      TEMPO 0520/0523 5SM TSRA BKN025CB
     FM052300 21004KT P6SM SCT040 BKN100
     FM060800 24003KT 6SM BR BKN012
     FM061000 25003KT 4SM BR BKN007
     FM061500 28005KT P6SM BKN012
     FM061700 24005KT P6SM BKN040 PROB30 0617/0623 5SM TSRA
      BKN025CB=



000
FTUS42 KFFC 051726
TAFATL
TAF
KATL 051726Z 0518/0624 24009G15KT P6SM VCSH FEW025 BKN040
      TEMPO 0518/0521 5SM TSRA BKN025CB
     FM052300 21004KT P6SM SCT040 BKN100
     FM060800 24003KT 6SM BR BKN012
     FM061000 25003KT 4SM BR BKN007
     FM061500 28005KT P6SM BKN012
     FM061700 24005KT P6SM BKN040 PROB30 0617/0623 5SM TSRA
      BKN025CB=



000
FTUS42 KFFC 051726
TAFMCN
TAF
KMCN 051726Z 0518/0618 23011G18KT P6SM VCSH BKN035
     FM060200 21005KT P6SM FEW035 BKN090
     FM061000 25003KT 5SM BR SCT006 BKN100
     FM061400 26005KT P6SM SCT035=



000
FTUS42 KFFC 051726
TAFATL
TAF
KATL 051726Z 0518/0624 24009G15KT P6SM VCSH FEW025 BKN040
      TEMPO 0518/0521 5SM TSRA BKN025CB
     FM052300 21004KT P6SM SCT040 BKN100
     FM060800 24003KT 6SM BR BKN012
     FM061000 25003KT 4SM BR BKN007
     FM061500 28005KT P6SM BKN012
     FM061700 24005KT P6SM BKN040 PROB30 0617/0623 5SM TSRA
      BKN025CB=



000
FTUS42 KFFC 051726
TAFCSG
TAF
KCSG 051726Z 0518/0618 22007KT P6SM VCSH SCT012 BKN025
     FM052200 22006KT P6SM VCSH SCT035 BKN040
     FM060100 21004KT P6SM BKN050
     FM061000 25004KT 4SM BR SCT006 BKN012
     FM061400 28005KT P6SM BKN025
     FM061500 28005KT P6SM SCT050=



000
FTUS42 KFFC 051726
TAFPDK
TAF
KPDK 051726Z 0518/0618 25008KT P6SM VCSH SCT025 BKN040
      TEMPO 0518/0521 5SM TSRA BKN025CB
     FM052300 22006KT P6SM SCT050 BKN100
     FM060800 25003KT 5SM BR BKN012
     FM061000 26004KT 4SM BR BKN008
     FM061400 26006KT P6SM SCT008 BKN012
     FM061600 26006KT P6SM BKN040=



000
FTUS42 KFFC 051726
TAFRYY
TAF
KRYY 051726Z 0518/0618 26008KT P6SM VCSH SCT025 BKN040
      TEMPO 0518/0521 5SM TSRA BKN025CB
     FM052300 22006KT P6SM SCT040 BKN100
     FM060800 24003KT 6SM BR BKN012
     FM061000 25004KT 3SM BR BKN008
     FM061400 27006KT P6SM BKN010
     FM061600 27006KT P6SM BKN040=



000
FTUS42 KFFC 051726
TAFAHN
TAF
KAHN 051726Z 0518/0618 22008KT P6SM SCT035 BKN040
      TEMPO 0519/0522 5SM TSRA BKN025CB
     FM052300 22006KT P6SM FEW035 BKN100
     FM060800 23003KT 6SM BR BKN012
     FM061000 24003KT 4SM BR BKN007
     FM061400 25005KT P6SM SCT007 BKN012
     FM061600 26007KT P6SM BKN040=



000
FTUS42 KFFC 051726
TAFFTY
TAF
KFTY 051726Z 0518/0618 24008KT P6SM VCSH SCT035 BKN040
      TEMPO 0518/0521 5SM TSRA BKN025CB
     FM052300 21006KT P6SM SCT050 BKN100
     FM060800 24003KT 5SM BR BKN012
     FM061000 25004KT 4SM BR BKN008
     FM061400 26005KT P6SM SCT008 BKN012
     FM061600 26006KT P6SM BKN040=



000
FTUS42 KFFC 051726
TAFFTY
TAF
KFTY 051726Z 0518/0618 24008KT P6SM VCSH SCT035 BKN040
      TEMPO 0518/0521 5SM TSRA BKN025CB
     FM052300 21006KT P6SM SCT050 BKN100
     FM060800 24003KT 5SM BR BKN012
     FM061000 25004KT 4SM BR BKN008
     FM061400 26005KT P6SM SCT008 BKN012
     FM061600 26006KT P6SM BKN040=



000
FTUS42 KFFC 051726
TAFAHN
TAF
KAHN 051726Z 0518/0618 22008KT P6SM SCT035 BKN040
      TEMPO 0519/0522 5SM TSRA BKN025CB
     FM052300 22006KT P6SM FEW035 BKN100
     FM060800 23003KT 6SM BR BKN012
     FM061000 24003KT 4SM BR BKN007
     FM061400 25005KT P6SM SCT007 BKN012
     FM061600 26007KT P6SM BKN040=



000
FTUS42 KFFC 051726
TAFCSG
TAF
KCSG 051726Z 0518/0618 22007KT P6SM VCSH SCT012 BKN025
     FM052200 22006KT P6SM VCSH SCT035 BKN040
     FM060100 21004KT P6SM BKN050
     FM061000 25004KT 4SM BR SCT006 BKN012
     FM061400 28005KT P6SM BKN025
     FM061500 28005KT P6SM SCT050=



000
FTUS42 KFFC 051726
TAFMCN
TAF
KMCN 051726Z 0518/0618 23011G18KT P6SM VCSH BKN035
     FM060200 21005KT P6SM FEW035 BKN090
     FM061000 25003KT 5SM BR SCT006 BKN100
     FM061400 26005KT P6SM SCT035=



000
FTUS42 KFFC 051726
TAFRYY
TAF
KRYY 051726Z 0518/0618 26008KT P6SM VCSH SCT025 BKN040
      TEMPO 0518/0521 5SM TSRA BKN025CB
     FM052300 22006KT P6SM SCT040 BKN100
     FM060800 24003KT 6SM BR BKN012
     FM061000 25004KT 3SM BR BKN008
     FM061400 27006KT P6SM BKN010
     FM061600 27006KT P6SM BKN040=



000
FTUS42 KFFC 051726
TAFPDK
TAF
KPDK 051726Z 0518/0618 25008KT P6SM VCSH SCT025 BKN040
      TEMPO 0518/0521 5SM TSRA BKN025CB
     FM052300 22006KT P6SM SCT050 BKN100
     FM060800 25003KT 5SM BR BKN012
     FM061000 26004KT 4SM BR BKN008
     FM061400 26006KT P6SM SCT008 BKN012
     FM061600 26006KT P6SM BKN040=



000
FTUS42 KFFC 051537 AAC
TAFATL
TAF AMD
KATL 051537Z 0516/0618 25008KT P6SM VCSH FEW015 SCT035
     FM051700 24009G14KT P6SM VCSH BKN040
      TEMPO 0517/0521 VRB15G25KT 3SM TSRA BKN025CB
     FM060200 25005KT P6SM BKN040
     FM061000 25004KT 6SM BR BKN012 BKN100
     FM061400 28005KT P6SM BKN030=



000
FTUS42 KFFC 051502 AAA
TAFCSG
TAF AMD
KCSG 051502Z 0515/0612 21004KT P6SM VCSH BKN008 OVC025
      TEMPO 0515/0519 4SM -TSRA BKN025CB
     FM051900 22009G14KT P6SM VCSH BKN050
     FM060200 25003KT P6SM BKN040=



000
FTUS42 KFFC 051502 AAA
TAFCSG
TAF AMD
KCSG 051502Z 0515/0612 21004KT P6SM VCSH BKN008 OVC025
      TEMPO 0515/0519 4SM -TSRA BKN025CB
     FM051900 22009G14KT P6SM VCSH BKN050
     FM060200 25003KT P6SM BKN040=



000
FTUS42 KFFC 051347 AAB
TAFATL
TAF AMD
KATL 051347Z 0514/0618 25008KT P6SM FEW009 BKN012
     FM051500 25005KT P6SM VCSH BKN025
     FM051700 24009G14KT P6SM VCSH BKN040
      TEMPO 0517/0521 VRB15G25KT 3SM TSRA BKN025CB
     FM060200 25005KT P6SM BKN040
     FM061000 25004KT 6SM BR BKN012 BKN100
     FM061400 28005KT P6SM BKN030=



000
FTUS42 KFFC 051255 AAA
TAFATL
TAF AMD
KATL 051255Z 0513/0618 25004KT P6SM BKN015 BKN070
      TEMPO 0513/0514 BKN008
     FM051400 25005KT P6SM -RA BKN025
     FM051700 24009G14KT P6SM VCSH BKN040
      TEMPO 0517/0521 VRB15G25KT 3SM TSRA BKN025CB
     FM060200 25005KT P6SM BKN040
     FM061000 25004KT 6SM BR BKN012 BKN100
     FM061400 28005KT P6SM BKN030=



000
FTUS42 KFFC 051120
TAFATL
TAF
KATL 051120Z 0512/0618 25004KT P6SM BKN015 BKN070
      TEMPO 0512/0513 BKN008
     FM051300 25005KT P6SM -RA BKN025
     FM051700 24009G14KT P6SM VCSH BKN040
      TEMPO 0517/0521 VRB15G25KT 3SM TSRA BKN025CB
     FM060200 25005KT P6SM BKN040
     FM061000 25004KT 6SM BR BKN012 BKN100
     FM061400 28005KT P6SM BKN030=



000
FTUS42 KFFC 051120
TAFCSG
TAF
KCSG 051120Z 0512/0612 30005KT P6SM SCT012
     FM051300 21004KT P6SM VCSH BKN025
      TEMPO 0513/0517 4SM -TSRA BKN025CB
     FM051700 22009G14KT P6SM VCSH BKN050
     FM060200 25003KT P6SM BKN040=



000
FTUS42 KFFC 051120
TAFAHN
TAF
KAHN 051120Z 0512/0612 22003KT P6SM SCT015
     FM051400 25005KT P6SM VCSH BKN030
     FM051800 22009G14KT P6SM VCSH BKN050
      TEMPO 0518/0522 VRB15G25KT 3SM TSRA BKN025CB
     FM060200 25002KT P6SM BKN040
     FM061000 25002KT 6SM BR BKN012 BKN100=



000
FTUS42 KFFC 051120
TAFRYY
TAF
KRYY 051120Z 0512/0612 25003KT P6SM BKN012
      TEMPO 0512/0513 BKN008
     FM051300 25005KT P6SM -RA BKN025
     FM051700 24009KT P6SM VCSH BKN040
      TEMPO 0517/0521 VRB15G25KT 3SM TSRA BKN025CB
     FM060200 25002KT P6SM BKN040
     FM061000 25002KT 6SM BR BKN012 BKN100=



000
FTUS42 KFFC 051120
TAFMCN
TAF
KMCN 051120Z 0512/0612 28003KT P6SM VCSH SCT015
     FM051400 27003KT P6SM BKN025
      TEMPO 0514/0518 4SM -TSRA BKN025CB
     FM051800 22009G14KT P6SM VCSH BKN050
     FM060200 25003KT P6SM BKN040=



000
FTUS42 KFFC 051120
TAFPDK
TAF
KPDK 051120Z 0512/0612 25003KT P6SM BKN025
     FM051300 25005KT P6SM -RA BKN025
     FM051700 24009KT P6SM VCSH BKN040
      TEMPO 0517/0521 VRB15G25KT 3SM TSRA BKN025CB
     FM060200 25002KT P6SM BKN040
     FM061000 25002KT 6SM BR BKN012 BKN100=



000
FTUS42 KFFC 051120
TAFFTY
TAF
KFTY 051120Z 0512/0612 25003KT P6SM BKN020
     FM051300 25005KT P6SM -RA BKN025
     FM051700 24009KT P6SM VCSH BKN040
      TEMPO 0517/0521 VRB15G25KT 3SM TSRA BKN025CB
     FM060200 25002KT P6SM BKN040
     FM061000 25002KT 6SM BR BKN012 BKN100=



000
FTUS42 KFFC 050937 AAB
TAFATL
TAF AMD
KATL 050937Z 0510/0612 25003KT P6SM BKN015 BKN050
      TEMPO 0510/0512 5SM BR BKN008
     FM051300 25005KT P6SM VCSH BKN025
     FM051900 22009G14KT P6SM VCSH BKN050 PROB30 0519/0524 -TSRA
      BKN025CB
     FM060200 25005KT P6SM BKN040
     FM060800 25004KT 6SM BR SCT012 BKN100=



000
FTUS42 KFFC 050937 AAB
TAFATL
TAF AMD
KATL 050937Z 0510/0612 25003KT P6SM BKN015 BKN050
      TEMPO 0510/0512 5SM BR BKN008
     FM051300 25005KT P6SM VCSH BKN025
     FM051900 22009G14KT P6SM VCSH BKN050 PROB30 0519/0524 -TSRA
      BKN025CB
     FM060200 25005KT P6SM BKN040
     FM060800 25004KT 6SM BR SCT012 BKN100=



000
FTUS42 KFFC 050820 AAA
TAFCSG
TAF AMD
KCSG 050820Z 0508/0606 30005KT P6SM SCT012
      TEMPO 0508/0512 BKN009
     FM051400 21004KT P6SM BKN025
     FM051900 22009G14KT P6SM VCSH BKN050 PROB30 0519/0524 3SM -TSRA
      BKN025CB
     FM060200 25003KT P6SM BKN040=



000
FTUS42 KFFC 050820 AAA
TAFCSG
TAF AMD
KCSG 050820Z 0508/0606 30005KT P6SM SCT012
      TEMPO 0508/0512 BKN009
     FM051400 21004KT P6SM BKN025
     FM051900 22009G14KT P6SM VCSH BKN050 PROB30 0519/0524 3SM -TSRA
      BKN025CB
     FM060200 25003KT P6SM BKN040=



000
FTUS42 KFFC 050819 AAB
TAFAHN
TAF AMD
KAHN 050819Z 0508/0606 22003KT P6SM SCT015
      TEMPO 0508/0512 5SM BR BKN012
     FM051400 25005KT P6SM VCSH BKN030
     FM051900 22009G14KT P6SM VCSH BKN050 PROB30 0519/0524 -TSRA
      BKN025CB
     FM060200 25003KT P6SM BKN040=



000
FTUS42 KFFC 050819 AAA
TAFPDK
TAF AMD
KPDK 050819Z 0508/0606 25003KT P6SM SCT015
      TEMPO 0508/0512 5SM BR BKN008
     FM051400 25005KT P6SM VCSH BKN030
     FM051900 22009G14KT P6SM VCSH BKN050 PROB30 0519/0524 -TSRA
      BKN025CB
     FM060200 25003KT P6SM BKN040=



000
FTUS42 KFFC 050819 AAA
TAFMCN
TAF AMD
KMCN 050819Z 0508/0606 28003KT P6SM VCSH SCT015
      TEMPO 0508/0512 BKN012
     FM051400 27003KT P6SM BKN025
     FM051900 22009G14KT P6SM VCSH BKN050 PROB30 0519/0524 3SM -TSRA
      BKN025CB
     FM060200 25003KT P6SM BKN040=



000
FTUS42 KFFC 050819 AAB
TAFAHN
TAF AMD
KAHN 050819Z 0508/0606 22003KT P6SM SCT015
      TEMPO 0508/0512 5SM BR BKN012
     FM051400 25005KT P6SM VCSH BKN030
     FM051900 22009G14KT P6SM VCSH BKN050 PROB30 0519/0524 -TSRA
      BKN025CB
     FM060200 25003KT P6SM BKN040=



000
FTUS42 KFFC 050819 AAA
TAFMCN
TAF AMD
KMCN 050819Z 0508/0606 28003KT P6SM VCSH SCT015
      TEMPO 0508/0512 BKN012
     FM051400 27003KT P6SM BKN025
     FM051900 22009G14KT P6SM VCSH BKN050 PROB30 0519/0524 3SM -TSRA
      BKN025CB
     FM060200 25003KT P6SM BKN040=



000
FTUS42 KFFC 050819 AAA
TAFPDK
TAF AMD
KPDK 050819Z 0508/0606 25003KT P6SM SCT015
      TEMPO 0508/0512 5SM BR BKN008
     FM051400 25005KT P6SM VCSH BKN030
     FM051900 22009G14KT P6SM VCSH BKN050 PROB30 0519/0524 -TSRA
      BKN025CB
     FM060200 25003KT P6SM BKN040=



000
FTUS42 KFFC 050815 AAA
TAFFTY
TAF AMD
KFTY 050815Z 0508/0606 25003KT P6SM SCT008
      TEMPO 0508/0512 5SM BR BKN008
     FM051400 25005KT P6SM VCSH BKN030
     FM051900 22009G14KT P6SM VCSH BKN050 PROB30 0519/0524 -TSRA
      BKN025CB
     FM060200 25003KT P6SM BKN040=



000
FTUS42 KFFC 050733 AAA
TAFATL
TAF AMD
KATL 050733Z 0508/0612 25003KT P6SM SCT015 BKN050
      TEMPO 0508/0512 5SM BR BKN012
     FM051400 25005KT P6SM VCSH BKN025
     FM051900 22009G14KT P6SM VCSH BKN050 PROB30 0519/0524 -TSRA
      BKN025CB
     FM060200 25005KT P6SM BKN040
     FM060800 25004KT 6SM BR SCT012 BKN100=



000
FTUS42 KFFC 050634 AAA
TAFAHN
TAF AMD
KAHN 050634Z 0507/0606 22003KT P6SM BKN007 BKN030
      TEMPO 0508/0512 5SM BR BKN012
     FM051400 25005KT P6SM VCSH BKN030
     FM051900 22009G14KT P6SM VCSH BKN050 PROB30 0519/0524 -TSRA
      BKN025CB
     FM060200 25003KT P6SM BKN040=



000
FTUS42 KFFC 050634 AAA
TAFAHN
TAF AMD
KAHN 050634Z 0507/0606 22003KT P6SM BKN007 BKN030
      TEMPO 0508/0512 5SM BR BKN012
     FM051400 25005KT P6SM VCSH BKN030
     FM051900 22009G14KT P6SM VCSH BKN050 PROB30 0519/0524 -TSRA
      BKN025CB
     FM060200 25003KT P6SM BKN040=



000
FTUS42 KFFC 050520
TAFATL
TAF
KATL 050520Z 0506/0612 25003KT P6SM SCT015 BKN030
     FM050800 25003KT P6SM BKN015
      TEMPO 0508/0512 5SM BR BKN008
     FM051400 25005KT P6SM VCSH BKN025
     FM051900 22009G14KT P6SM VCSH BKN050 PROB30 0519/0524 -TSRA
      BKN025CB
     FM060200 25005KT P6SM BKN040
     FM060800 25004KT 6SM BR SCT012 BKN100=



000
FTUS42 KFFC 050520
TAFPDK
TAF
KPDK 050520Z 0506/0606 25003KT P6SM SCT015 BKN030
     FM050800 25003KT P6SM BKN015
      TEMPO 0508/0512 5SM BR BKN008
     FM051400 25005KT P6SM VCSH BKN030
     FM051900 22009G14KT P6SM VCSH BKN050 PROB30 0519/0524 -TSRA
      BKN025CB
     FM060200 25003KT P6SM BKN040=



000
FTUS42 KFFC 050520
TAFMCN
TAF
KMCN 050520Z 0506/0606 28003KT P6SM VCSH BKN008
      TEMPO 0508/0512 BKN012
     FM051400 27003KT P6SM BKN025
     FM051900 22009G14KT P6SM VCSH BKN050 PROB30 0519/0524 3SM -TSRA
      BKN025CB
     FM060200 25003KT P6SM BKN040=



000
FTUS42 KFFC 050520
TAFAHN
TAF
KAHN 050520Z 0506/0606 22003KT P6SM SCT015 BKN030
      TEMPO 0508/0512 5SM BR BKN012
     FM051400 25005KT P6SM VCSH BKN030
     FM051900 22009G14KT P6SM VCSH BKN050 PROB30 0519/0524 -TSRA
      BKN025CB
     FM060200 25003KT P6SM BKN040=



000
FTUS42 KFFC 050520
TAFRYY
TAF
KRYY 050520Z 0506/0606 25003KT P6SM SCT015 BKN030
     FM050800 25003KT P6SM BKN015
      TEMPO 0508/0512 5SM BR BKN008
     FM051400 25005KT P6SM VCSH BKN030
     FM051900 22009G14KT P6SM VCSH BKN050 PROB30 0519/0524 -TSRA
      BKN025CB
     FM060200 25003KT P6SM BKN040
      AMD NOT SKED TIL 051200=



000
FTUS42 KFFC 050520
TAFFTY
TAF
KFTY 050520Z 0506/0606 25003KT P6SM SCT015 BKN030
     FM050800 25003KT P6SM BKN015
      TEMPO 0508/0512 5SM BR BKN008
     FM051400 25005KT P6SM VCSH BKN030
     FM051900 22009G14KT P6SM VCSH BKN050 PROB30 0519/0524 -TSRA
      BKN025CB
     FM060200 25003KT P6SM BKN040=



000
FTUS42 KFFC 050520
TAFCSG
TAF
KCSG 050520Z 0506/0606 30005KT P6SM BKN006
      TEMPO 0508/0512 BKN009
     FM051400 21004KT P6SM BKN025
     FM051900 22009G14KT P6SM VCSH BKN050 PROB30 0519/0524 3SM -TSRA
      BKN025CB
     FM060200 25003KT P6SM BKN040=



000
FTUS42 KFFC 050520
TAFPDK
TAF
KPDK 050520Z 0506/0606 25003KT P6SM SCT015 BKN030
     FM050800 25003KT P6SM BKN015
      TEMPO 0508/0512 5SM BR BKN008
     FM051400 25005KT P6SM VCSH BKN030
     FM051900 22009G14KT P6SM VCSH BKN050 PROB30 0519/0524 -TSRA
      BKN025CB
     FM060200 25003KT P6SM BKN040=



000
FTUS42 KFFC 050520
TAFATL
TAF
KATL 050520Z 0506/0612 25003KT P6SM SCT015 BKN030
     FM050800 25003KT P6SM BKN015
      TEMPO 0508/0512 5SM BR BKN008
     FM051400 25005KT P6SM VCSH BKN025
     FM051900 22009G14KT P6SM VCSH BKN050 PROB30 0519/0524 -TSRA
      BKN025CB
     FM060200 25005KT P6SM BKN040
     FM060800 25004KT 6SM BR SCT012 BKN100=



000
FTUS42 KFFC 050520
TAFAHN
TAF
KAHN 050520Z 0506/0606 22003KT P6SM SCT015 BKN030
      TEMPO 0508/0512 5SM BR BKN012
     FM051400 25005KT P6SM VCSH BKN030
     FM051900 22009G14KT P6SM VCSH BKN050 PROB30 0519/0524 -TSRA
      BKN025CB
     FM060200 25003KT P6SM BKN040=



000
FTUS42 KFFC 050520
TAFMCN
TAF
KMCN 050520Z 0506/0606 28003KT P6SM VCSH BKN008
      TEMPO 0508/0512 BKN012
     FM051400 27003KT P6SM BKN025
     FM051900 22009G14KT P6SM VCSH BKN050 PROB30 0519/0524 3SM -TSRA
      BKN025CB
     FM060200 25003KT P6SM BKN040=



000
FTUS42 KFFC 050520
TAFRYY
TAF
KRYY 050520Z 0506/0606 25003KT P6SM SCT015 BKN030
     FM050800 25003KT P6SM BKN015
      TEMPO 0508/0512 5SM BR BKN008
     FM051400 25005KT P6SM VCSH BKN030
     FM051900 22009G14KT P6SM VCSH BKN050 PROB30 0519/0524 -TSRA
      BKN025CB
     FM060200 25003KT P6SM BKN040
      AMD NOT SKED TIL 051200=



000
FTUS42 KFFC 050520
TAFFTY
TAF
KFTY 050520Z 0506/0606 25003KT P6SM SCT015 BKN030
     FM050800 25003KT P6SM BKN015
      TEMPO 0508/0512 5SM BR BKN008
     FM051400 25005KT P6SM VCSH BKN030
     FM051900 22009G14KT P6SM VCSH BKN050 PROB30 0519/0524 -TSRA
      BKN025CB
     FM060200 25003KT P6SM BKN040=



000
FTUS42 KFFC 050520
TAFCSG
TAF
KCSG 050520Z 0506/0606 30005KT P6SM BKN006
      TEMPO 0508/0512 BKN009
     FM051400 21004KT P6SM BKN025
     FM051900 22009G14KT P6SM VCSH BKN050 PROB30 0519/0524 3SM -TSRA
      BKN025CB
     FM060200 25003KT P6SM BKN040=



000
FTUS42 KFFC 050450 AAA
TAFCSG
TAF AMD
KCSG 050450Z 0505/0524 30005KT P6SM BKN012
      TEMPO 0505/0509 BKN005
     FM050900 00000KT 6SM BR BKN035
     FM051500 21004KT P6SM BKN045
     FM051900 22009G14KT P6SM VCSH BKN050 PROB30 0519/0524 3SM -TSRA
      BKN025CB=



000
FTUS42 KFFC 050346 AAB
TAFATL
TAF AMD
KATL 050346Z 0504/0606 22006KT P6SM VCSH FEW012 SCT035 OVC110
      TEMPO 0504/0506 6SM -RA SCT015
     FM050600 25003KT 5SM BR BKN015
     FM051400 25005KT P6SM VCSH FEW025 BKN045
     FM051900 22009G14KT P6SM VCSH BKN050 PROB30 0519/0524 -TSRA
      BKN025CB
     FM060200 25005KT P6SM BKN040=



000
FTUS42 KFFC 050346 AAB
TAFATL
TAF AMD
KATL 050346Z 0504/0606 22006KT P6SM VCSH FEW012 SCT035 OVC110
      TEMPO 0504/0506 6SM -RA SCT015
     FM050600 25003KT 5SM BR BKN015
     FM051400 25005KT P6SM VCSH FEW025 BKN045
     FM051900 22009G14KT P6SM VCSH BKN050 PROB30 0519/0524 -TSRA
      BKN025CB
     FM060200 25005KT P6SM BKN040=



000
FTUS42 KFFC 050148 AAA
TAFATL
TAF AMD
KATL 050148Z 0502/0606 22006KT P6SM -RA SCT025 BKN040 OVC110
      TEMPO 0502/0504 VRB15G25KT 3SM TSRA BKN025CB
     FM050600 25003KT 5SM BR BKN015
     FM051400 25005KT P6SM VCSH FEW025 BKN045
     FM051900 22009G14KT P6SM VCSH BKN050 PROB30 0519/0524 -TSRA
      BKN025CB
     FM060200 25005KT P6SM BKN040=



000
FTUS42 KFFC 042343
TAFFTY
TAF
KFTY 042343Z 0500/0524 25007KT 5SM SHRA SCT025 BKN040
      TEMPO 0500/0503 VRB15G25KT 3SM TSRA BKN025CB
     FM050600 26006KT 4SM BR BKN015
     FM051400 25005KT P6SM VCSH FEW025 BKN045
     FM051900 22009G14KT P6SM VCSH BKN050 PROB30 0519/0524 3SM -TSRA
      BKN025CB=



000
FTUS42 KFFC 042343
TAFCSG
TAF
KCSG 042343Z 0500/0524 21005KT P6SM VCSH SCT040 BKN100
      TEMPO 0500/0504 VRB15G25KT 3SM TSRA BKN025CB
     FM050400 30005KT P6SM BKN040
     FM050900 00000KT 6SM BR BKN035
     FM051500 21004KT P6SM BKN045
     FM051900 22009G14KT P6SM VCSH BKN050 PROB30 0519/0524 3SM -TSRA
      BKN025CB=



000
FTUS42 KFFC 042343
TAFATL
TAF
KATL 042343Z 0500/0606 24006KT 5SM SHRA SCT025 BKN040
      TEMPO 0500/0504 VRB15G25KT 3SM TSRA BKN025CB
     FM050600 25003KT 5SM BR BKN015
     FM051400 25005KT P6SM VCSH FEW025 BKN045
     FM051900 22009G14KT P6SM VCSH BKN050 PROB30 0519/0524 -TSRA
      BKN025CB
     FM060200 25005KT P6SM BKN040=



000
FTUS42 KFFC 042343
TAFPDK
TAF
KPDK 042343Z 0500/0524 25008KT 5SM SHRA SCT025 BKN040
      TEMPO 0500/0503 VRB15G25KT 3SM TSRA BKN025CB
     FM050600 28006KT 4SM BR BKN015
     FM051100 00000KT 2SM BR BKN012
     FM051500 25006KT P6SM VCSH SCT012 BKN045
     FM051900 22009G14KT P6SM VCSH BKN050 PROB30 0519/0524 3SM -TSRA
      BKN025CB=



000
FTUS42 KFFC 042343
TAFRYY
TAF
KRYY 042343Z 0500/0524 25008KT 5SM SHRA SCT025 BKN040
      TEMPO 0500/0503 VRB15G25KT 3SM TSRA BKN025CB
     FM050600 28006KT 4SM BR BKN015
     FM051100 00000KT 2SM BR BKN012
     FM051500 25006KT P6SM VCSH SCT012 BKN045
     FM051900 22009G14KT P6SM VCSH BKN050 PROB30 0519/0524 3SM -TSRA
      BKN025CB
      AMD NOT SKED 0504/0512=



000
FTUS42 KFFC 042343
TAFMCN
TAF
KMCN 042343Z 0500/0524 20004KT P6SM SCT025 BKN040
      TEMPO 0502/0504 VRB15G25KT 3SM TSRA BR BKN025CB
     FM050400 28003KT P6SM BKN045
     FM051000 00000KT 5SM BR BKN025
     FM051400 27003KT P6SM BKN035
     FM051900 22009G14KT P6SM VCSH BKN050 PROB30 0519/0524 3SM -TSRA
      BKN025CB=



000
FTUS42 KFFC 042343
TAFAHN
TAF
KAHN 042343Z 0500/0524 23006KT P6SM SCT040 BKN100
     FM050200 25004KT 6SM SHRA BKN050
      TEMPO 0503/0507 VRB15G25KT 3SM TSRA BKN025CB
     FM050700 28005KT 6SM BR BKN015
     FM051500 24006KT P6SM VCSH BKN045
     FM051900 22009G14KT P6SM VCSH BKN050 PROB30 0519/0524 3SM -TSRA
      BKN025CB=



000
FTUS42 KFFC 042305 AAA
TAFRYY
TAF AMD
KRYY 042305Z 0423/0518 25008KT 5SM SHRA SCT025 BKN040
      TEMPO 0423/0503 VRB15G25KT 3SM TSRA BKN025CB
     FM050600 28006KT 4SM BR BKN015
     FM051100 00000KT 2SM BR BKN012
     FM051500 25006KT 6SM -SHRA SCT012 BKN045=



000
FTUS42 KFFC 042305 AAA
TAFPDK
TAF AMD
KPDK 042305Z 0423/0518 25008KT 5SM SHRA SCT025 BKN040
      TEMPO 0423/0503 VRB15G25KT 3SM TSRA BKN025CB
     FM050600 28006KT 4SM BR BKN015
     FM051100 00000KT 2SM BR BKN012
     FM051500 25006KT 6SM -SHRA SCT012 BKN045=



000
FTUS42 KFFC 042305 AAA
TAFFTY
TAF AMD
KFTY 042305Z 0423/0518 25007KT 5SM SHRA SCT025 BKN040
      TEMPO 0423/0503 VRB15G25KT 3SM TSRA BKN025CB
     FM050600 26006KT 4SM BR BKN015
     FM051400 25005KT P6SM FEW025 BKN045=



000
FTUS42 KFFC 042305 AAA
TAFRYY
TAF AMD
KRYY 042305Z 0423/0518 25008KT 5SM SHRA SCT025 BKN040
      TEMPO 0423/0503 VRB15G25KT 3SM TSRA BKN025CB
     FM050600 28006KT 4SM BR BKN015
     FM051100 00000KT 2SM BR BKN012
     FM051500 25006KT 6SM -SHRA SCT012 BKN045=



000
FTUS42 KFFC 042305 AAA
TAFPDK
TAF AMD
KPDK 042305Z 0423/0518 25008KT 5SM SHRA SCT025 BKN040
      TEMPO 0423/0503 VRB15G25KT 3SM TSRA BKN025CB
     FM050600 28006KT 4SM BR BKN015
     FM051100 00000KT 2SM BR BKN012
     FM051500 25006KT 6SM -SHRA SCT012 BKN045=



000
FTUS42 KFFC 042305 AAA
TAFFTY
TAF AMD
KFTY 042305Z 0423/0518 25007KT 5SM SHRA SCT025 BKN040
      TEMPO 0423/0503 VRB15G25KT 3SM TSRA BKN025CB
     FM050600 26006KT 4SM BR BKN015
     FM051400 25005KT P6SM FEW025 BKN045=



000
FTUS42 KFFC 042143 AAA
TAFCSG
TAF AMD
KCSG 042143Z 0422/0518 21005KT P6SM VCSH SCT040 BKN100
      TEMPO 0422/0501 VRB15G25KT 3SM TSRA BKN025CB
     FM050100 17005KT 6SM SHRA BKN045
     FM050300 30008KT P6SM BKN040
     FM050900 28005KT 6SM BR BKN035
     FM051500 21004KT P6SM BKN045=



000
FTUS42 KFFC 042139 AAB
TAFATL
TAF AMD
KATL 042139Z 0422/0524 23008KT P6SM SCT035
     FM050000 24006KT 5SM SHRA SCT025 BKN040
      TEMPO 0500/0504 VRB15G25KT 3SM TSRA BKN025CB
     FM050600 25003KT 5SM BR BKN015
     FM051400 25005KT P6SM FEW025 BKN045
     FM051900 22009G14KT P6SM BKN050 PROB30 0519/0524 -TSRA
      BKN025CB=



000
FTUS42 KFFC 041950 AAA
TAFATL
TAF AMD
KATL 041950Z 0420/0524 23008KT P6SM SCT035
     FM050000 24006KT 5SM SHRA SCT025 BKN040
      TEMPO 0500/0504 VRB15G25KT 3SM TSRA BKN025CB
     FM050600 25003KT 5SM BR BKN015
     FM051400 25005KT P6SM FEW025 BKN045
     FM051900 22009G14KT P6SM BKN050 PROB30 0519/0524 -TSRA
      BKN025CB=



000
FTUS42 KFFC 041731
TAFAHN
TAF
KAHN 041731Z 0418/0518 25013G21KT P6SM SCT040 BKN100
     FM050000 23004KT P6SM VCSH BKN040
     FM050200 00000KT 6SM SHRA BKN050
      TEMPO 0503/0507 VRB15G25KT 3SM TSRA BKN025CB
     FM050700 34005KT 6SM BR BKN015
     FM051500 24006KT P6SM BKN045=



000
FTUS42 KFFC 041731
TAFMCN
TAF
KMCN 041731Z 0418/0518 26010G15KT P6SM SCT025 BKN040
      TEMPO 0418/0422 3SM TSRA BR BKN025CB
     FM042200 26006KT P6SM VCTS BKN045CB
     FM050000 VRB03KT P6SM BKN045
     FM051000 27004KT 5SM BR BKN025
     FM051400 27003KT P6SM BKN035=



000
FTUS42 KFFC 041731
TAFATL
TAF
KATL 041731Z 0418/0524 23008KT P6SM VCSH SCT040 BKN100
     FM050100 24006KT 5SM SHRA SCT025 BKN040
      TEMPO 0501/0505 VRB15G25KT 3SM TSRA BKN025CB
     FM050600 25003KT 5SM BR BKN015
     FM051400 25005KT P6SM FEW025 BKN045
     FM051900 22009G14KT P6SM BKN050 PROB30 0519/0524 -TSRA
      BKN025CB=



000
FTUS42 KFFC 041731
TAFFTY
TAF
KFTY 041731Z 0418/0518 24006KT P6SM VCSH SCT040 BKN100
     FM050100 25003KT 5SM SHRA SCT025 BKN040
      TEMPO 0501/0505 VRB15G25KT 3SM TSRA BKN025CB
     FM050600 26006KT 4SM BR BKN015
     FM051400 25005KT P6SM FEW025 BKN045=



000
FTUS42 KFFC 041731
TAFRYY
TAF
KRYY 041731Z 0418/0518 22007KT P6SM SCT015 BKN040
     FM042000 25008KT 5SM SHRA SCT025 BKN040
      TEMPO 0502/0506 VRB15G25KT 3SM TSRA BKN025CB
     FM050600 28006KT 4SM BR BKN015
     FM051100 00000KT 2SM BR BKN012
     FM051500 25006KT 6SM -SHRA SCT012 BKN045=



000
FTUS42 KFFC 041731
TAFCSG
TAF
KCSG 041731Z 0418/0518 25005KT P6SM VCTS SCT040CB BKN100
      TEMPO 0418/0422 3SM TSRA BKN025CB
     FM050000 17005KT 6SM SHRA BKN045
     FM050300 30008KT P6SM BKN040
     FM050900 28005KT 6SM BR BKN035
     FM051500 21004KT P6SM BKN045=



000
FTUS42 KFFC 041731
TAFPDK
TAF
KPDK 041731Z 0418/0518 22007KT P6SM VCSH BKN040
     FM050000 25008KT 5SM SHRA SCT025 BKN040
      TEMPO 0501/0505 VRB15G25KT 3SM TSRA BKN025CB
     FM050600 28006KT 4SM BR BKN015
     FM051100 00000KT 2SM BR BKN012
     FM051500 25006KT 6SM -SHRA SCT012 BKN045=



000
FTUS42 KFFC 041715 AAA
TAFMCN
TAF AMD
KMCN 041715Z 0417/0512 35012G20KT 5SM -RA FEW020 SCT035 BKN060
      TEMPO 0417/0421 VRB15G25KT 3SM TSRA BKN025CB
     FM050000 28003KT P6SM -SHRA OVC040
     FM050900 27003KT P6SM BKN060 PROB30 0509/0512 -SHRA BKN040=



000
FTUS42 KFFC 041715 AAA
TAFMCN
TAF AMD
KMCN 041715Z 0417/0512 35012G20KT 5SM -RA FEW020 SCT035 BKN060
      TEMPO 0417/0421 VRB15G25KT 3SM TSRA BKN025CB
     FM050000 28003KT P6SM -SHRA OVC040
     FM050900 27003KT P6SM BKN060 PROB30 0509/0512 -SHRA BKN040=



000
FTUS42 KFFC 041651 AAC
TAFRYY
TAF AMD
KRYY 041651Z 0417/0512 21005KT 6SM -RA BR SCT010 OVC090
     FM041800 26012G20KT P6SM -SHRA SCT012 BKN040
      TEMPO 0420/0424 4SM TSRA BR BKN025CB
     FM050000 28003KT P6SM -SHRA OVC040
     FM050900 27003KT P6SM BKN060 PROB30 0509/0512 -SHRA BKN040=



000
FTUS42 KFFC 041651 AAC
TAFRYY
TAF AMD
KRYY 041651Z 0417/0512 21005KT 6SM -RA BR SCT010 OVC090
     FM041800 26012G20KT P6SM -SHRA SCT012 BKN040
      TEMPO 0420/0424 4SM TSRA BR BKN025CB
     FM050000 28003KT P6SM -SHRA OVC040
     FM050900 27003KT P6SM BKN060 PROB30 0509/0512 -SHRA BKN040=



000
FTUS42 KFFC 041553 AAA
TAFCSG
TAF AMD
KCSG 041553Z 0416/0512 26010G17KT P6SM VCTS BKN012CB
     FM041800 26012G20KT P6SM -SHRA SCT035 BKN040
      TEMPO 0418/0422 4SM TSRA BR BKN025CB
     FM050000 28003KT P6SM -SHRA OVC040
     FM050900 27003KT P6SM BKN060 PROB30 0509/0512 -SHRA BKN040=



000
FTUS42 KFFC 041534 AAC
TAFATL
TAF AMD
KATL 041534Z 0416/0518 24008KT 5SM SHRA SCT025 OVC040
     FM041700 26012G20KT P6SM VCSH SCT035 BKN040
     FM050000 28003KT P6SM -SHRA OVC040
     FM050900 27003KT P6SM BKN060 PROB30 0509/0512 -SHRA BKN040
     FM051200 27003KT P6SM -SHRA SCT030 BKN060=



000
FTUS42 KFFC 041534 AAC
TAFATL
TAF AMD
KATL 041534Z 0416/0518 24008KT 5SM SHRA SCT025 OVC040
     FM041700 26012G20KT P6SM VCSH SCT035 BKN040
     FM050000 28003KT P6SM -SHRA OVC040
     FM050900 27003KT P6SM BKN060 PROB30 0509/0512 -SHRA BKN040
     FM051200 27003KT P6SM -SHRA SCT030 BKN060=



000
FTUS42 KFFC 041521 AAB
TAFRYY
TAF AMD
KRYY 041521Z 0415/0512 25010KT 5SM -SHRA BKN008 OVC050
     FM041800 26012G20KT P6SM -SHRA SCT012 BKN040
      TEMPO 0420/0424 4SM TSRA BR BKN025CB
     FM050000 28003KT P6SM -SHRA OVC040
     FM050900 27003KT P6SM BKN060 PROB30 0509/0512 -SHRA BKN040=



000
FTUS42 KFFC 041349 AAB
TAFATL
TAF AMD
KATL 041349Z 0414/0518 24008KT 5SM SHRA SCT025 OVC040
      TEMPO 0414/0415 26015G25KT
     FM041800 26012G20KT P6SM -SHRA SCT035 BKN040
     FM050000 28003KT P6SM -SHRA OVC040
     FM050900 27003KT P6SM BKN060 PROB30 0509/0512 -SHRA BKN040
     FM051200 27003KT P6SM -SHRA SCT030 BKN060=



000
FTUS42 KFFC 041258 AAA
TAFFTY
TAF AMD
KFTY 041258Z 0413/0512 25006KT 5SM -SHRA SCT030 OVC070
     FM041800 26012G20KT P6SM -SHRA SCT035 BKN040
      TEMPO 0420/0424 4SM TSRA BR BKN025CB
     FM050000 28003KT P6SM -SHRA OVC040
     FM050900 27003KT P6SM BKN060 PROB30 0509/0512 -SHRA BKN040=



000
FTUS42 KFFC 041258 AAA
TAFRYY
TAF AMD
KRYY 041258Z 0413/0512 25010KT 5SM -SHRA SCT025 BKN060
     FM041800 26012G20KT P6SM -SHRA SCT035 BKN040
      TEMPO 0420/0424 4SM TSRA BR BKN025CB
     FM050000 28003KT P6SM -SHRA OVC040
     FM050900 27003KT P6SM BKN060 PROB30 0509/0512 -SHRA BKN040=



000
FTUS42 KFFC 041257 AAA
TAFATL
TAF AMD
KATL 041257Z 0413/0518 24008KT 5SM SHRA SCT025 OVC040
     FM041500 26010G17KT P6SM -SHRA SCT030 BKN050
     FM041800 26012G20KT P6SM -SHRA SCT035 BKN040
      TEMPO 0420/0424 4SM TSRA BR BKN025CB
     FM050000 28003KT P6SM -SHRA OVC040
     FM050900 27003KT P6SM BKN060 PROB30 0509/0512 -SHRA BKN040
     FM051200 27003KT P6SM -SHRA SCT030 BKN060=



000
FTUS42 KFFC 041257 AAA
TAFPDK
TAF AMD
KPDK 041257Z 0413/0512 23005KT 3SM SHRA SCT035 OVC070
     FM041500 26010G17KT 5SM -SHRA SCT030 BKN050
     FM041800 26012G20KT P6SM -SHRA SCT035 BKN040
      TEMPO 0420/0424 4SM TSRA BR BKN025CB
     FM050000 28003KT P6SM -SHRA OVC040
     FM050900 27003KT P6SM BKN060 PROB30 0509/0512 -SHRA BKN040=



000
FTUS42 KFFC 041137
TAFFTY
TAF
KFTY 041137Z 0412/0512 25006KT P6SM -SHRA FEW006 SCT030 OVC070
     FM041500 26010G17KT P6SM -SHRA SCT030 BKN050
     FM041800 26012G20KT P6SM -SHRA SCT035 BKN040
      TEMPO 0420/0424 4SM TSRA BR BKN025CB
     FM050000 28003KT P6SM -SHRA OVC040
     FM050900 27003KT P6SM BKN060 PROB30 0509/0512 -SHRA BKN040=



000
FTUS42 KFFC 041137
TAFPDK
TAF
KPDK 041137Z 0412/0512 23005KT P6SM -SHRA SCT035 OVC070
     FM041500 26010G17KT P6SM -SHRA SCT030 BKN050
     FM041800 26012G20KT P6SM -SHRA SCT035 BKN040
      TEMPO 0420/0424 4SM TSRA BR BKN025CB
     FM050000 28003KT P6SM -SHRA OVC040
     FM050900 27003KT P6SM BKN060 PROB30 0509/0512 -SHRA BKN040=



000
FTUS42 KFFC 041137
TAFATL
TAF
KATL 041137Z 0412/0518 25010KT P6SM -SHRA SCT030 OVC070
     FM041500 26010G17KT P6SM -SHRA SCT030 BKN050
     FM041800 26012G20KT P6SM -SHRA SCT035 BKN040
      TEMPO 0420/0424 4SM TSRA BR BKN025CB
     FM050000 28003KT P6SM -SHRA OVC040
     FM050900 27003KT P6SM BKN060 PROB30 0509/0512 -SHRA BKN040
     FM051200 27003KT P6SM -SHRA SCT030 BKN060=



000
FTUS42 KFFC 041137
TAFRYY
TAF
KRYY 041137Z 0412/0512 25010KT P6SM -SHRA SCT020 BKN040
     FM041500 26010G17KT P6SM -SHRA SCT030 BKN050
     FM041800 26012G20KT P6SM -SHRA SCT035 BKN040
      TEMPO 0420/0424 4SM TSRA BR BKN025CB
     FM050000 28003KT P6SM -SHRA OVC040
     FM050900 27003KT P6SM BKN060 PROB30 0509/0512 -SHRA BKN040=



000
FTUS42 KFFC 041137
TAFAHN
TAF
KAHN 041137Z 0412/0512 25007KT P6SM -SHRA OVC090
     FM041500 26010G17KT P6SM -SHRA SCT030 BKN050
     FM041800 26012G20KT P6SM -SHRA SCT035 BKN040
      TEMPO 0420/0424 4SM TSRA BR BKN025CB
     FM050000 28003KT P6SM -SHRA OVC040
     FM050900 27003KT P6SM BKN060 PROB30 0509/0512 -SHRA BKN040=



000
FTUS42 KFFC 041137
TAFCSG
TAF
KCSG 041137Z 0412/0512 25006KT P6SM SCT020 BKN030
     FM041500 26010G17KT P6SM SCT030 BKN050
     FM041800 26012G20KT P6SM -SHRA SCT035 BKN040
      TEMPO 0420/0424 4SM TSRA BR BKN025CB
     FM050000 28003KT P6SM -SHRA OVC040
     FM050900 27003KT P6SM BKN060 PROB30 0509/0512 -SHRA BKN040=



000
FTUS42 KFFC 041137
TAFMCN
TAF
KMCN 041137Z 0412/0512 25010KT P6SM SCT070
     FM041500 26010G17KT P6SM SCT030 BKN050
     FM041800 26012G20KT P6SM -SHRA SCT035 BKN040
      TEMPO 0420/0424 4SM TSRA BR BKN025CB
     FM050000 28003KT P6SM -SHRA OVC040
     FM050900 27003KT P6SM BKN060 PROB30 0509/0512 -SHRA BKN040=



000
FTUS42 KFFC 041042 AAA
TAFPDK
TAF AMD
KPDK 041042Z 0411/0506 23005KT 2SM -SHRA BR SCT030 BKN045 BKN120
      TEMPO 0411/0412 VRB10G25KT 4SM +SHRA BR BKN030
     FM041200 29007KT P6SM -SHRA SCT020 BKN045
     FM041500 26010G17KT P6SM -SHRA SCT035 BKN100
     FM041800 26012G20KT P6SM -SHRA SCT045 BKN100 PROB30 0420/0424
      4SM TSRA BR BKN025CB
     FM050000 28003KT P6SM -SHRA OVC040=



000
FTUS42 KFFC 041042 AAA
TAFPDK
TAF AMD
KPDK 041042Z 0411/0506 23005KT 2SM -SHRA BR SCT030 BKN045 BKN120
      TEMPO 0411/0412 VRB10G25KT 4SM +SHRA BR BKN030
     FM041200 29007KT P6SM -SHRA SCT020 BKN045
     FM041500 26010G17KT P6SM -SHRA SCT035 BKN100
     FM041800 26012G20KT P6SM -SHRA SCT045 BKN100 PROB30 0420/0424
      4SM TSRA BR BKN025CB
     FM050000 28003KT P6SM -SHRA OVC040=



000
FTUS42 KFFC 040924 AAB
TAFATL
TAF AMD
KATL 040924Z 0409/0512 25010KT P6SM -SHRA SCT040 OVC100
      TEMPO 0409/0412 5SM SHRA BR BKN030
     FM041200 29007KT P6SM -SHRA SCT020 BKN045
     FM041500 26010G17KT P6SM -SHRA SCT035 BKN100
     FM041800 26012G20KT P6SM -SHRA SCT045 BKN100 PROB30 0420/0424
      4SM TSRA BR BKN025CB
     FM050000 28003KT P6SM -SHRA OVC040
     FM050900 27003KT P6SM BKN060=



000
FTUS42 KFFC 040735 AAA
TAFATL
TAF AMD
KATL 040735Z 0408/0512 25010KT P6SM VCSH SCT020 BKN040 BKN120
      TEMPO 0408/0410 VRB10G25KT 4SM SHRA BR BKN020
     FM041100 29007KT P6SM -SHRA SCT020 BKN045
     FM041400 26010G17KT P6SM SCT035 BKN100
     FM041800 26012G20KT P6SM SCT045 BKN100 PROB30 0420/0424 4SM
      -TSRA BR BKN025CB
     FM050000 28003KT P6SM -SHRA OVC040
     FM050900 27003KT P6SM BKN060=



000
FTUS42 KFFC 040735 AAA
TAFATL
TAF AMD
KATL 040735Z 0408/0512 25010KT P6SM VCSH SCT020 BKN040 BKN120
      TEMPO 0408/0410 VRB10G25KT 4SM SHRA BR BKN020
     FM041100 29007KT P6SM -SHRA SCT020 BKN045
     FM041400 26010G17KT P6SM SCT035 BKN100
     FM041800 26012G20KT P6SM SCT045 BKN100 PROB30 0420/0424 4SM
      -TSRA BR BKN025CB
     FM050000 28003KT P6SM -SHRA OVC040
     FM050900 27003KT P6SM BKN060=



000
FTUS42 KFFC 040542
TAFAHN
TAF
KAHN 040542Z 0406/0506 25006KT P6SM VCSH SCT025 SCT040 BKN120
      TEMPO 0408/0411 VRB10G25KT 4SM TSRA BR BKN020CB
     FM041200 29007KT P6SM -SHRA SCT020 BKN045
     FM041400 26010G17KT P6SM SCT035 BKN100
     FM041800 26012G20KT P6SM SCT045 BKN100 PROB30 0420/0424 4SM
      -TSRA BR BKN025CB
     FM050000 28003KT P6SM -SHRA OVC040=



000
FTUS42 KFFC 040542
TAFMCN
TAF
KMCN 040542Z 0406/0506 25010KT P6SM VCSH SCT035 BKN060 BKN120
      TEMPO 0408/0411 VRB10G25KT 4SM TSRA BR BKN020CB
     FM041200 29007KT P6SM -SHRA SCT020 BKN045
     FM041400 26010G17KT P6SM SCT035 BKN100
     FM041800 26012G20KT P6SM SCT045 BKN100 PROB30 0420/0424 4SM
      -TSRA BR BKN025CB
     FM050000 28003KT P6SM -SHRA OVC040=



000
FTUS42 KFFC 040542
TAFATL
TAF
KATL 040542Z 0406/0512 25010KT P6SM VCSH SCT030 SCT040 BKN120
      TEMPO 0407/0410 VRB10G25KT 4SM TSRA BR BKN025CB
     FM041100 29007KT P6SM -SHRA SCT020 BKN045
     FM041400 26010G17KT P6SM SCT035 BKN100
     FM041800 26012G20KT P6SM SCT045 BKN100 PROB30 0420/0424 4SM
      -TSRA BR BKN025CB
     FM050000 28003KT P6SM -SHRA OVC040
     FM050900 27003KT P6SM BKN060=



000
FTUS42 KFFC 040542
TAFFTY
TAF
KFTY 040542Z 0406/0506 22008KT P6SM VCSH SCT030 BKN120
      TEMPO 0407/0410 VRB10G25KT 4SM TSRA BR BKN020CB
     FM041100 29007KT P6SM -SHRA SCT020 BKN045
     FM041400 26010G17KT P6SM SCT035 BKN100
     FM041800 26012G20KT P6SM SCT045 BKN100 PROB30 0420/0424 4SM
      -TSRA BR BKN025CB
     FM050000 28003KT P6SM -SHRA OVC040=



000
FTUS42 KFFC 040542
TAFPDK
TAF
KPDK 040542Z 0406/0506 25010KT 6SM BR VCSH SCT025 BKN035 BKN120
      TEMPO 0407/0410 VRB10G25KT 4SM TSRA BR BKN020CB
     FM041100 29007KT P6SM -SHRA SCT020 BKN045
     FM041400 26010G17KT P6SM SCT035 BKN100
     FM041800 26012G20KT P6SM SCT045 BKN100 PROB30 0420/0424 4SM
      -TSRA BR BKN025CB
     FM050000 28003KT P6SM -SHRA OVC040=



000
FTUS42 KFFC 040542
TAFRYY
TAF
KRYY 040542Z 0406/0506 25010KT P6SM VCSH SCT025 SCT040 BKN120
      TEMPO 0407/0410 VRB10G25KT 4SM TSRA BR BKN020CB
     FM041100 29007KT P6SM -SHRA SCT020 BKN045
     FM041400 26010G17KT P6SM SCT035 BKN100
     FM041800 26012G20KT P6SM SCT045 BKN100 PROB30 0420/0424 4SM
      -TSRA BR BKN025CB
     FM050000 28003KT P6SM -SHRA OVC040
      AMD NOT SKED TIL 041200=



000
FTUS42 KFFC 040542
TAFCSG
TAF
KCSG 040542Z 0406/0506 25010KT P6SM VCSH SCT040 BKN120
      TEMPO 0406/0410 VRB10G25KT 4SM TSRA BR BKN020CB
     FM041100 29007KT P6SM -SHRA SCT020 BKN045
     FM041400 26010G17KT P6SM SCT035 BKN100
     FM041800 26012G20KT P6SM SCT045 BKN100 PROB30 0420/0424 4SM
      -TSRA BR BKN025CB
     FM050000 28003KT P6SM -SHRA OVC040=



000
FTUS42 KFFC 040450 AAA
TAFMCN
TAF AMD
KMCN 040450Z 0405/0424 26006KT P6SM SCT035 BKN080
      TEMPO 0405/0407 25015G30KT 2SM TSRA BKN030CB
     FM040900 24004KT P6SM VCSH SCT020 BKN045
     FM041400 26010G17KT P6SM SCT035 BKN100
     FM041800 26012G20KT P6SM SCT045 BKN100 PROB30 0420/0424 4SM
      -TSRA BR BKN025CB=



000
FTUS42 KFFC 040425 AAC
TAFATL
TAF AMD
KATL 040425Z 0404/0506 22010KT P6SM VCSH SCT025 BKN040 BKN120
     FM040700 23007KT P6SM VCSH SCT020 BKN035
      TEMPO 0407/0409 VRB10G25KT 4SM -TSRA BR BKN020CB
     FM040900 29007KT P6SM -SHRA SCT020 BKN045
     FM041400 26010G17KT P6SM SCT035 BKN100
     FM041800 26012G20KT P6SM SCT045 BKN100 PROB30 0420/0424 4SM
      -TSRA BR BKN025CB=



000
FTUS42 KFFC 040413 AAC
TAFCSG
TAF AMD
KCSG 040413Z 0404/0424 30008KT P6SM FEW040 BKN100
      TEMPO 0405/0407 VRB15G30KT 2SM TSRA BR BKN020CB
     FM040700 25004KT P6SM VCSH SCT020 BKN050
     FM041400 28010G17KT P6SM SCT035 BKN100
     FM041800 26012G20KT P6SM SCT045 BKN100 PROB30 0420/0424 4SM
      -TSRA BR BKN025CB=



000
FTUS42 KFFC 040400 AAB
TAFCSG
TAF AMD
KCSG 040400Z 0404/0424 27008KT P6SM SCT040 BKN100
      TEMPO 0404/0407 VRB15G30KT 2SM TSRA BR BKN030CB
     FM040700 25004KT P6SM VCSH SCT020 BKN050
     FM041400 28010G17KT P6SM SCT035 BKN100
     FM041800 26012G20KT P6SM SCT045 BKN100 PROB30 0420/0424 4SM
      -TSRA BR BKN025CB=



000
FTUS42 KFFC 040400 AAB
TAFCSG
TAF AMD
KCSG 040400Z 0404/0424 27008KT P6SM SCT040 BKN100
      TEMPO 0404/0407 VRB15G30KT 2SM TSRA BR BKN030CB
     FM040700 25004KT P6SM VCSH SCT020 BKN050
     FM041400 28010G17KT P6SM SCT035 BKN100
     FM041800 26012G20KT P6SM SCT045 BKN100 PROB30 0420/0424 4SM
      -TSRA BR BKN025CB=



000
FTUS42 KFFC 040354 AAB
TAFATL
TAF AMD
KATL 040354Z 0404/0506 24010G22KT P6SM VCSH BKN120
     FM040700 23007KT P6SM VCSH SCT020 BKN035
      TEMPO 0407/0409 VRB10G25KT 4SM -TSRA BR BKN020CB
     FM040900 29007KT P6SM -SHRA SCT020 BKN045
     FM041400 26010G17KT P6SM SCT035 BKN100
     FM041800 26012G20KT P6SM SCT045 BKN100 PROB30 0420/0424 4SM
      -TSRA BR BKN025CB=



000
FTUS42 KFFC 040217 AAA
TAFATL
TAF AMD
KATL 040217Z 0402/0506 24007KT P6SM BKN120
     FM040700 23007KT P6SM VCSH SCT020 BKN035
      TEMPO 0407/0409 VRB10G25KT 4SM -TSRA BR BKN020CB
     FM040900 29007KT P6SM -SHRA SCT020 BKN045
     FM041400 26010G17KT P6SM SCT035 BKN100
     FM041800 26012G20KT P6SM SCT045 BKN100 PROB30 0420/0424 4SM
      -TSRA BR BKN025CB=



000
FTUS42 KFFC 040054 AAA
TAFCSG
TAF AMD
KCSG 040054Z 0401/0424 27008KT P6SM SCT040 BKN100
      TEMPO 0403/0406 VRB15G30KT 2SM TSRA BR BKN030CB
     FM040600 25004KT P6SM VCSH SCT020 BKN035
     FM041400 28010G17KT P6SM SCT035 BKN100
     FM041800 26012G20KT P6SM SCT045 BKN100 PROB30 0420/0424 4SM
      -TSRA BR BKN025CB=



000
FTUS42 KFFC 032341
TAFRYY
TAF
KRYY 032341Z 0400/0424 26006KT P6SM SCT035 BKN080
     FM040700 23004KT P6SM VCSH SCT020 BKN035
      TEMPO 0407/0409 VRB10G25KT 4SM -TSRA BR BKN020CB
     FM040900 29007KT P6SM -SHRA SCT020 BKN045
     FM041400 26010G17KT P6SM SCT035 BKN100
     FM041800 26012G20KT P6SM SCT045 BKN100 PROB30 0420/0424 4SM
      -TSRA BR BKN025CB=



000
FTUS42 KFFC 032341
TAFPDK
TAF
KPDK 032341Z 0400/0424 26006KT P6SM SCT035 BKN080
     FM040700 23004KT P6SM VCSH SCT020 BKN035
      TEMPO 0407/0409 VRB10G25KT 4SM -TSRA BR BKN020CB
     FM040900 29007KT P6SM -SHRA SCT020 BKN045
     FM041400 26010G17KT P6SM SCT035 BKN100
     FM041800 26012G20KT P6SM SCT045 BKN100 PROB30 0420/0424 4SM
      -TSRA BR BKN025CB=



000
FTUS42 KFFC 032341
TAFFTY
TAF
KFTY 032341Z 0400/0424 26006KT P6SM SCT035 BKN080
     FM040700 23004KT P6SM VCSH SCT020 BKN035
      TEMPO 0407/0409 VRB10G25KT 4SM -TSRA BR BKN020CB
     FM040900 29007KT 6SM -SHRA BR SCT020 BKN045
     FM041400 26010G17KT P6SM SCT035 BKN100
     FM041800 26012G20KT P6SM SCT045 BKN100 PROB30 0420/0424 4SM
      -TSRA BR BKN025CB=



000
FTUS42 KFFC 032341
TAFCSG
TAF
KCSG 032341Z 0400/0424 27008KT P6SM SCT040 BKN100
      TEMPO 0402/0404 VRB15G30KT 2SM TSRA BR BKN030CB
     FM040400 25004KT P6SM SCT020 BKN035
     FM040900 26004KT P6SM VCSH SCT020 BKN045
     FM041400 28010G17KT P6SM SCT035 BKN100
     FM041800 26012G20KT P6SM SCT045 BKN100 PROB30 0420/0424 4SM
      -TSRA BR BKN025CB=



000
FTUS42 KFFC 032341
TAFMCN
TAF
KMCN 032341Z 0400/0424 26006KT P6SM SCT035 BKN080
     FM040200 23004KT P6SM SCT020 BKN035
     FM040900 24004KT P6SM VCSH SCT020 BKN045
     FM041400 26010G17KT P6SM SCT035 BKN100
     FM041800 26012G20KT P6SM SCT045 BKN100 PROB30 0420/0424 4SM
      -TSRA BR BKN025CB=



000
FTUS42 KFFC 032341
TAFAHN
TAF
KAHN 032341Z 0400/0424 26006KT P6SM SCT035 BKN080
     FM040700 24004KT P6SM VCSH SCT020 BKN035
      TEMPO 0407/0409 VRB10G25KT 4SM -TSRA BR BKN020CB
     FM040900 29007KT P6SM -SHRA SCT020 BKN045
     FM041400 26010G17KT P6SM SCT035 BKN100
     FM041800 26012G20KT P6SM SCT045 BKN100 PROB30 0420/0424 4SM
      -TSRA BR BKN025CB=



000
FTUS42 KFFC 032341
TAFATL
TAF
KATL 032341Z 0400/0506 26009KT P6SM SCT035 BKN080
     FM040700 23007KT P6SM VCSH SCT020 BKN035
      TEMPO 0407/0409 VRB10G25KT 4SM -TSRA BR BKN020CB
     FM040900 29007KT P6SM -SHRA SCT020 BKN045
     FM041400 26010G17KT P6SM SCT035 BKN100
     FM041800 26012G20KT P6SM SCT045 BKN100 PROB30 0420/0424 4SM
      -TSRA BR BKN025CB=



000
FTUS42 KFFC 032312 AAA
TAFCSG
TAF AMD
KCSG 032312Z 0323/0418 27010G18KT P6SM SCT100
      TEMPO 0402/0404 VRB15G30KT 2SM TSRA BR BKN030CB
     FM040400 VRB03KT P6SM VCSH SCT030 BKN100
     FM040800 VRB03KT P6SM BKN100
     FM041500 27010KT P6SM SCT035 BKN080=



000
FTUS42 KFFC 032201 AAB
TAFATL
TAF AMD
KATL 032201Z 0322/0424 26009KT P6SM SCT035 BKN080
     FM040700 23007KT P6SM VCSH SCT020 BKN035
      TEMPO 0407/0409 VRB10G25KT 4SM -TSRA BR BKN020CB
     FM040900 29007KT P6SM -SHRA SCT020 BKN045
     FM041400 26010G17KT P6SM SCT045 BKN100=



000
FTUS42 KFFC 031953 AAA
TAFMCN
TAF AMD
KMCN 031953Z 0320/0418 26012G18KT P6SM SCT050
     FM040100 27008KT P6SM SCT040 BKN100
     FM040700 24005KT P6SM SCT020 BKN040
     FM041200 27008KT P6SM SCT025 BKN070=



000
FTUS42 KFFC 031953 AAA
TAFMCN
TAF AMD
KMCN 031953Z 0320/0418 26012G18KT P6SM SCT050
     FM040100 27008KT P6SM SCT040 BKN100
     FM040700 24005KT P6SM SCT020 BKN040
     FM041200 27008KT P6SM SCT025 BKN070=



000
FTUS42 KFFC 031952 AAA
TAFAHN
TAF AMD
KAHN 031952Z 0320/0418 27011KT P6SM -SHRA SCT035 BKN050
     FM032300 30007KT P6SM -RA SCT020 BKN040
     FM040700 VRB04KT P6SM VCSH SCT030 BKN050 PROB30 0408/0412
      VRB15G25KT 3SM TSRA BKN025CB
     FM041200 25007KT P6SM -SHRA SCT015 BKN040=



000
FTUS42 KFFC 031950 AAA
TAFRYY
TAF AMD
KRYY 031950Z 0320/0418 27014G22KT P6SM -RA SCT025 BKN040
     FM032300 29010KT P6SM -RA SCT020 BKN035
     FM040600 23005KT P6SM VCSH SCT020 BKN040
      TEMPO 0406/0410 VRB15G25KT 3SM TSRA BKN020CB
     FM041000 26009KT P6SM -SHRA SCT015 BKN035=



000
FTUS42 KFFC 031949 AAA
TAFPDK
TAF AMD
KPDK 031949Z 0320/0418 26012G20KT P6SM -RA SCT030 BKN050
     FM032300 28010KT P6SM -RA SCT025 BKN040
     FM040600 23005KT P6SM VCSH SCT020 BKN040
      TEMPO 0406/0410 VRB15G25KT 3SM TSRA BKN020CB
     FM041000 25009KT P6SM -SHRA SCT015 BKN035=



000
FTUS42 KFFC 031948 AAA
TAFFTY
TAF AMD
KFTY 031948Z 0320/0418 26012G18KT P6SM VCSH SCT045 BKN080
     FM032200 29010KT P6SM -RA SCT025 BKN050
     FM040600 23005KT P6SM VCSH SCT020 BKN040
      TEMPO 0406/0410 VRB15G25KT 3SM TSRA BKN020CB
     FM041000 25007KT P6SM -SHRA SCT015 BKN035=



000
FTUS42 KFFC 031948 AAA
TAFFTY
TAF AMD
KFTY 031948Z 0320/0418 26012G18KT P6SM VCSH SCT045 BKN080
     FM032200 29010KT P6SM -RA SCT025 BKN050
     FM040600 23005KT P6SM VCSH SCT020 BKN040
      TEMPO 0406/0410 VRB15G25KT 3SM TSRA BKN020CB
     FM041000 25007KT P6SM -SHRA SCT015 BKN035=



000
FTUS42 KFFC 031945 AAA
TAFATL
TAF AMD
KATL 031945Z 0320/0424 27011G18KT P6SM -RA SCT030 BKN050
     FM040000 25009KT P6SM SCT045 BKN080
     FM040600 23008KT P6SM VCSH SCT020 BKN040 PROB30 0406/0410
      VRB15G25KT 3SM TSRA BKN020CB
     FM041000 25007KT P6SM -SHRA SCT015 BKN035
     FM041700 27010G17KT P6SM SCT045 BKN100=



000
FTUS42 KFFC 031738
TAFATL
TAF
KATL 031738Z 0318/0424 27012G18KT P6SM -RA BKN080
     FM031900 27014G21KT P6SM VCSH SCT045 BKN080
      TEMPO 0319/0321 VRB15G30KT 3SM TSRA BR OVC025CB
     FM032100 29010KT P6SM -RA SCT025 BKN050
     FM040600 23008KT P6SM VCSH SCT020 BKN040 PROB30 0406/0410
      VRB15G25KT 3SM TSRA BKN020CB
     FM041000 25007KT P6SM -SHRA SCT015 BKN035
     FM041700 27010G17KT P6SM SCT045 BKN100=



000
FTUS42 KFFC 031738
TAFPDK
TAF
KPDK 031738Z 0318/0418 26012G18KT P6SM -RA BKN080
     FM031900 26014G21KT P6SM VCSH SCT045 BKN080
      TEMPO 0319/0322 VRB20G30KT 2SM +TSRA BR OVC025CB
     FM032200 28010KT P6SM -RA SCT025 BKN050
     FM040600 23005KT P6SM VCSH SCT020 BKN040
      TEMPO 0406/0410 VRB15G25KT 3SM TSRA BKN020CB
     FM041000 25009KT P6SM -SHRA SCT015 BKN035=



000
FTUS42 KFFC 031738
TAFRYY
TAF
KRYY 031738Z 0318/0418 27012G18KT P6SM -RA SCT015 BKN080
     FM031900 27012G18KT P6SM VCSH SCT025 BKN050
      TEMPO 0319/0322 VRB20G30KT 2SM +TSRA BR OVC025CB
     FM032200 29010KT P6SM -RA SCT025 BKN050
     FM040600 23005KT P6SM VCSH SCT020 BKN040
      TEMPO 0406/0410 VRB15G25KT 3SM TSRA BKN020CB
     FM041000 26009KT P6SM -SHRA SCT015 BKN035=



000
FTUS42 KFFC 031738
TAFAHN
TAF
KAHN 031738Z 0318/0418 26008KT P6SM VCSH SCT080 BKN110
     FM032100 27011KT P6SM VCSH SCT045 BKN070
      TEMPO 0321/0323 VRB15G30KT 2SM +TSRA BR BKN025CB
     FM032300 30007KT P6SM -SHRA SCT020 BKN040
     FM040700 VRB04KT P6SM VCSH SCT030 BKN050 PROB30 0408/0412
      VRB15G25KT 3SM TSRA BKN025CB
     FM041200 25007KT P6SM -SHRA SCT015 BKN040=



000
FTUS42 KFFC 031738
TAFMCN
TAF
KMCN 031738Z 0318/0418 26014G20KT P6SM VCTS SCT025CB BKN040
      TEMPO 0318/0319 VRB15G35KT 3SM TSRA BKN025CB
     FM040100 27008KT P6SM SCT040 BKN100
     FM040700 24005KT P6SM SCT020 BKN040
     FM041200 27008KT P6SM SCT025 BKN070=



000
FTUS42 KFFC 031738
TAFFTY
TAF
KFTY 031738Z 0318/0418 26010KT P6SM -RA BKN080
     FM031900 26012G18KT P6SM VCSH SCT045 BKN080
      TEMPO 0319/0322 VRB20G30KT 2SM +TSRA BR OVC025CB
     FM032200 29010KT P6SM -RA SCT025 BKN050
     FM040600 23005KT P6SM VCSH SCT020 BKN040
      TEMPO 0406/0410 VRB15G25KT 3SM TSRA BKN020CB
     FM041000 25007KT P6SM -SHRA SCT015 BKN035=



000
FTUS42 KFFC 031738
TAFCSG
TAF
KCSG 031738Z 0318/0418 29012G18KT P6SM SCT050
     FM032100 27012G18KT P6SM VCTS SCT060CB BKN100
      TEMPO 0323/0401 VRB15G30KT 2SM TSRA BR BKN030CB
     FM040100 27008KT P6SM -SHRA SCT025 BKN040
     FM040600 VRB03KT P6SM SCT060 BKN100
     FM041000 VRB03KT P6SM VCSH SCT030 BKN050
     FM041500 27010KT P6SM BKN080=



000
FTUS42 KFFC 031738
TAFATL
TAF
KATL 031738Z 0318/0424 27012G18KT P6SM -RA BKN080
     FM031900 27014G21KT P6SM VCSH SCT045 BKN080
      TEMPO 0319/0321 VRB15G30KT 3SM TSRA BR OVC025CB
     FM032100 29010KT P6SM -RA SCT025 BKN050
     FM040600 23008KT P6SM VCSH SCT020 BKN040 PROB30 0406/0410
      VRB15G25KT 3SM TSRA BKN020CB
     FM041000 25007KT P6SM -SHRA SCT015 BKN035
     FM041700 27010G17KT P6SM SCT045 BKN100=



000
FTUS42 KFFC 031738
TAFFTY
TAF
KFTY 031738Z 0318/0418 26010KT P6SM -RA BKN080
     FM031900 26012G18KT P6SM VCSH SCT045 BKN080
      TEMPO 0319/0322 VRB20G30KT 2SM +TSRA BR OVC025CB
     FM032200 29010KT P6SM -RA SCT025 BKN050
     FM040600 23005KT P6SM VCSH SCT020 BKN040
      TEMPO 0406/0410 VRB15G25KT 3SM TSRA BKN020CB
     FM041000 25007KT P6SM -SHRA SCT015 BKN035=



000
FTUS42 KFFC 031738
TAFAHN
TAF
KAHN 031738Z 0318/0418 26008KT P6SM VCSH SCT080 BKN110
     FM032100 27011KT P6SM VCSH SCT045 BKN070
      TEMPO 0321/0323 VRB15G30KT 2SM +TSRA BR BKN025CB
     FM032300 30007KT P6SM -SHRA SCT020 BKN040
     FM040700 VRB04KT P6SM VCSH SCT030 BKN050 PROB30 0408/0412
      VRB15G25KT 3SM TSRA BKN025CB
     FM041200 25007KT P6SM -SHRA SCT015 BKN040=



000
FTUS42 KFFC 031738
TAFCSG
TAF
KCSG 031738Z 0318/0418 29012G18KT P6SM SCT050
     FM032100 27012G18KT P6SM VCTS SCT060CB BKN100
      TEMPO 0323/0401 VRB15G30KT 2SM TSRA BR BKN030CB
     FM040100 27008KT P6SM -SHRA SCT025 BKN040
     FM040600 VRB03KT P6SM SCT060 BKN100
     FM041000 VRB03KT P6SM VCSH SCT030 BKN050
     FM041500 27010KT P6SM BKN080=



000
FTUS42 KFFC 031738
TAFMCN
TAF
KMCN 031738Z 0318/0418 26014G20KT P6SM VCTS SCT025CB BKN040
      TEMPO 0318/0319 VRB15G35KT 3SM TSRA BKN025CB
     FM040100 27008KT P6SM SCT040 BKN100
     FM040700 24005KT P6SM SCT020 BKN040
     FM041200 27008KT P6SM SCT025 BKN070=



000
FTUS42 KFFC 031738
TAFPDK
TAF
KPDK 031738Z 0318/0418 26012G18KT P6SM -RA BKN080
     FM031900 26014G21KT P6SM VCSH SCT045 BKN080
      TEMPO 0319/0322 VRB20G30KT 2SM +TSRA BR OVC025CB
     FM032200 28010KT P6SM -RA SCT025 BKN050
     FM040600 23005KT P6SM VCSH SCT020 BKN040
      TEMPO 0406/0410 VRB15G25KT 3SM TSRA BKN020CB
     FM041000 25009KT P6SM -SHRA SCT015 BKN035=



000
FTUS42 KFFC 031738
TAFRYY
TAF
KRYY 031738Z 0318/0418 27012G18KT P6SM -RA SCT015 BKN080
     FM031900 27012G18KT P6SM VCSH SCT025 BKN050
      TEMPO 0319/0322 VRB20G30KT 2SM +TSRA BR OVC025CB
     FM032200 29010KT P6SM -RA SCT025 BKN050
     FM040600 23005KT P6SM VCSH SCT020 BKN040
      TEMPO 0406/0410 VRB15G25KT 3SM TSRA BKN020CB
     FM041000 26009KT P6SM -SHRA SCT015 BKN035=



000
FTUS42 KFFC 031551 AAD
TAFATL
TAF AMD
KATL 031551Z 0316/0418 26010KT P6SM -RA SCT030 BKN100
     FM031900 27012G18KT P6SM SCT045 BKN120
     FM040100 27008KT P6SM -SHRA BKN030 BKN080
     FM040600 26009KT P6SM OVC020
     FM041200 25008KT P6SM SCT030 BKN060=



000
FTUS42 KFFC 031538 AAA
TAFMCN
TAF AMD
KMCN 031538Z 0316/0412 25012G18KT P6SM SCT025 BKN050
     FM031700 26014G20KT P6SM VCTS SCT025CB BKN040
      TEMPO 0317/0319 VRB15G35KT 3SM TSRA BKN025CB
     FM040100 27008KT P6SM SCT020 BKN040
     FM040600 26009KT P6SM OVC060=



000
FTUS42 KFFC 031535 AAC
TAFAHN
TAF AMD
KAHN 031535Z 0316/0412 24008KT 5SM -SHRA BR SCT040 BKN100
      TEMPO 0316/0318 3SM TSRA SCT025 BKN040CB
     FM032100 27012KT P6SM VCSH SCT030 BKN080
     FM040100 27008KT P6SM -SHRA BKN030 BKN080
     FM040600 26009KT P6SM OVC020=



000
FTUS42 KFFC 031533 AAB
TAFRYY
TAF AMD
KRYY 031533Z 0316/0412 25010KT P6SM -RA SCT012 BKN030
      TEMPO 0316/0318 4SM SHRA BR BKN010
     FM032100 26010KT P6SM VCSH SCT025 BKN040
     FM040100 27008KT P6SM -SHRA BKN030 BKN080
     FM040600 26009KT P6SM OVC020=



000
FTUS42 KFFC 031530 AAB
TAFPDK
TAF AMD
KPDK 031530Z 0316/0412 23008KT 4SM -SHRA BR SCT025 BKN050
     FM032000 24010KT P6SM VCSH SCT050 BKN100
     FM040100 27008KT P6SM -SHRA BKN030 BKN080
     FM040600 26009KT P6SM OVC020=



000
FTUS42 KFFC 031503 AAB
TAFFTY
TAF AMD
KFTY 031503Z 0315/0412 23008KT P6SM -RA SCT045 BKN070
      TEMPO 0315/0317 4SM TSRA BR BKN035CB
     FM031700 28010KT 4SM -SHRA SCT025 BKN050
     FM032100 27012KT P6SM SCT040 BKN070
     FM040100 27008KT P6SM -SHRA BKN030 BKN080
     FM040600 26009KT P6SM OVC020=



000
FTUS42 KFFC 031344 AAC
TAFATL
TAF AMD
KATL 031344Z 0314/0418 26011G20KT 4SM TSRA BR BKN020CB
     FM031430 29008KT 6SM -SHRA BR SCT015 BKN030
     FM031600 25010KT P6SM SCT025 BKN050
      TEMPO 0316/0320 VRB15G25KT 4SM TSRA BKN015CB
     FM032100 27012KT 5SM TSRA BKN020CB
     FM040100 27008KT P6SM -SHRA BKN030 BKN080
     FM040600 26009KT P6SM OVC020
     FM041200 25008KT P6SM SCT030 BKN060=



000
FTUS42 KFFC 031235 AAA
TAFFTY
TAF AMD
KFTY 031235Z 0313/0412 24008KT P6SM VCTS SCT025CB BKN040
      TEMPO 0313/0314 VRB12G22KT 2SM +TSRA BR BKN025CB
     FM031400 28010KT 4SM -SHRA BKN025 OVC050
      TEMPO 0314/0318 VRB15G25KT 2SM TSRA BR BKN015CB
     FM032100 27012KT 5SM TSRA BKN020CB
     FM040100 27008KT P6SM -SHRA BKN030 BKN080
     FM040600 26009KT P6SM OVC020=



000
FTUS42 KFFC 031234 AAA
TAFPDK
TAF AMD
KPDK 031234Z 0313/0412 23010KT 4SM -TSRA BR SCT009 BKN015CB
      TEMPO 0313/0314 VRB10G20KT 2SM +TSRA BR BKN009CB
     FM031400 30010KT 4SM -SHRA BKN025 BKN050
      TEMPO 0314/0318 VRB15G25KT 2SM TSRA BR BKN015CB
     FM032100 27012KT 5SM TSRA BKN020CB
     FM040100 27008KT P6SM -SHRA BKN030 BKN080
     FM040600 26009KT P6SM OVC020=



000
FTUS42 KFFC 031230 AAB
TAFAHN
TAF AMD
KAHN 031230Z 0313/0412 30008KT 4SM -TSRA BR SCT014 BKN025CB
      TEMPO 0313/0315 VRB10G20KT 1SM +TSRA BR OVC020CB
     FM031500 25012KT 5SM -SHRA BKN025 BKN050
      TEMPO 0315/0319 VRB15G25KT 2SM TSRA BR BKN015CB
     FM032100 27012KT 5SM TSRA BKN020CB
     FM040100 27008KT P6SM -SHRA BKN030 BKN080
     FM040600 26009KT P6SM OVC020=



000
FTUS42 KFFC 031230 AAB
TAFAHN
TAF AMD
KAHN 031230Z 0313/0412 30008KT 4SM -TSRA BR SCT014 BKN025CB
      TEMPO 0313/0315 VRB10G20KT 1SM +TSRA BR OVC020CB
     FM031500 25012KT 5SM -SHRA BKN025 BKN050
      TEMPO 0315/0319 VRB15G25KT 2SM TSRA BR BKN015CB
     FM032100 27012KT 5SM TSRA BKN020CB
     FM040100 27008KT P6SM -SHRA BKN030 BKN080
     FM040600 26009KT P6SM OVC020=



000
FTUS42 KFFC 031226 AAA
TAFRYY
TAF AMD
KRYY 031226Z 0312/0412 25010KT 5SM -TSRA BR SCT020CB BKN035
      TEMPO 0313/0314 VRB15G25KT 2SM TSRA BR BKN020CB
     FM031400 28012KT 4SM -SHRA BR SCT015 BKN025
      TEMPO 0316/0320 VRB15G25KT 4SM TSRA BKN015CB
     FM032100 27012KT 5SM TSRA BKN020CB
     FM040100 27008KT P6SM -SHRA BKN030 BKN080
     FM040600 26009KT P6SM OVC020=



000
FTUS42 KFFC 031226 AAA
TAFRYY
TAF AMD
KRYY 031226Z 0312/0412 25010KT 5SM -TSRA BR SCT020CB BKN035
      TEMPO 0313/0314 VRB15G25KT 2SM TSRA BR BKN020CB
     FM031400 28012KT 4SM -SHRA BR SCT015 BKN025
      TEMPO 0316/0320 VRB15G25KT 4SM TSRA BKN015CB
     FM032100 27012KT 5SM TSRA BKN020CB
     FM040100 27008KT P6SM -SHRA BKN030 BKN080
     FM040600 26009KT P6SM OVC020=



000
FTUS42 KFFC 031220 AAB
TAFATL
TAF AMD
KATL 031220Z 0312/0418 24011KT P6SM FEW015 SCT050 BKN100
     FM031300 24012KT P6SM SCT015 BKN040
      TEMPO 0313/0314 VRB15G25KT 2SM TSRA BR BKN025CB
     FM031400 34010KT 4SM -SHRA BR BKN020 OVC050
      TEMPO 0316/0320 VRB15G25KT 4SM TSRA BKN015CB
     FM032100 27012KT 5SM TSRA BKN020CB
     FM040100 27008KT P6SM -SHRA BKN030 BKN080
     FM040600 26009KT P6SM OVC020
     FM041200 25008KT P6SM SCT030 BKN060=



000
FTUS42 KFFC 031220 AAB
TAFATL
TAF AMD
KATL 031220Z 0312/0418 24011KT P6SM FEW015 SCT050 BKN100
     FM031300 24012KT P6SM SCT015 BKN040
      TEMPO 0313/0314 VRB15G25KT 2SM TSRA BR BKN025CB
     FM031400 34010KT 4SM -SHRA BR BKN020 OVC050
      TEMPO 0316/0320 VRB15G25KT 4SM TSRA BKN015CB
     FM032100 27012KT 5SM TSRA BKN020CB
     FM040100 27008KT P6SM -SHRA BKN030 BKN080
     FM040600 26009KT P6SM OVC020
     FM041200 25008KT P6SM SCT030 BKN060=



000
FTUS42 KFFC 031149 AAA
TAFATL
TAF AMD
KATL 031149Z 0312/0418 24012KT P6SM FEW010 BKN100
     FM031400 25012KT P6SM -TSRA BKN025 BKN050CB
      TEMPO 0316/0320 25015G25KT 4SM TSRA BKN015CB
     FM032100 27012KT 5SM TSRA BKN020CB
     FM040100 27008KT P6SM -SHRA BKN030 BKN080
     FM040600 26009KT P6SM OVC020
     FM041200 25008KT P6SM SCT030 BKN060=



000
FTUS42 KFFC 031149 AAA
TAFAHN
TAF AMD
KAHN 031149Z 0312/0412 28010KT 2SM TSRA BR SCT025 BKN040CB
     FM031400 25012KT P6SM SHRA BKN025 BKN050
      TEMPO 0316/0320 25015G25KT 4SM TSRA BKN015CB
     FM032100 27012KT 5SM TSRA BKN020CB
     FM040100 27008KT P6SM -SHRA BKN030 BKN080
     FM040600 26009KT P6SM OVC020=



000
FTUS42 KFFC 031136
TAFRYY
TAF
KRYY 031136Z 0312/0412 24012KT 6SM BR SCT010 BKN040
     FM031330 25012KT P6SM SHRA BKN025 BKN050
      TEMPO 0316/0320 25015G25KT 4SM TSRA BKN015CB
     FM032100 27012KT 5SM TSRA BKN020CB
     FM040100 27008KT P6SM -SHRA BKN030 BKN080
     FM040600 26009KT P6SM OVC020=



000
FTUS42 KFFC 031136
TAFFTY
TAF
KFTY 031136Z 0312/0412 24010KT P6SM FEW007 BKN040
     FM031400 25012KT P6SM SHRA BKN025 BKN050
      TEMPO 0316/0320 25015G25KT 4SM TSRA BKN015CB
     FM032100 27012KT 5SM TSRA BKN020CB
     FM040100 27008KT P6SM -SHRA BKN030 BKN080
     FM040600 26009KT P6SM OVC020=



000
FTUS42 KFFC 031136
TAFMCN
TAF
KMCN 031136Z 0312/0412 24008KT P6SM FEW010 BKN040
     FM031400 25012KT P6SM BKN025 BKN250
     FM031600 26012G18KT P6SM VCSH SCT040 BKN100
      TEMPO 0318/0322 4SM TSRA BKN025CB
     FM040100 27008KT P6SM SCT020 BKN040
     FM040600 26009KT P6SM OVC060=



000
FTUS42 KFFC 031136
TAFPDK
TAF
KPDK 031136Z 0312/0412 24010KT 6SM BR BKN010 OVC030
     FM031400 25012KT P6SM SHRA BKN025 BKN050
      TEMPO 0316/0320 25015G25KT 4SM TSRA BKN015CB
     FM032100 27012KT 5SM TSRA BKN020CB
     FM040100 27008KT P6SM -SHRA BKN030 BKN080
     FM040600 26009KT P6SM OVC020=



000
FTUS42 KFFC 031136
TAFATL
TAF
KATL 031136Z 0312/0418 24012KT P6SM FEW010 BKN100
     FM031400 25012KT P6SM SHRA BKN025 BKN050
      TEMPO 0316/0320 25015G25KT 4SM TSRA BKN015CB
     FM032100 27012KT 5SM TSRA BKN020CB
     FM040100 27008KT P6SM -SHRA BKN030 BKN080
     FM040600 26009KT P6SM OVC020
     FM041200 25008KT P6SM SCT030 BKN060=



000
FTUS42 KFFC 031136
TAFCSG
TAF
KCSG 031136Z 0312/0412 25008KT P6SM BKN020 BKN100
     FM031400 25012KT P6SM BKN025 BKN250
     FM031600 26012G18KT P6SM VCSH SCT040 BKN100
      TEMPO 0318/0322 4SM TSRA BKN025CB
     FM040100 27008KT P6SM SCT020 BKN040
     FM040600 26009KT P6SM OVC060=



000
FTUS42 KFFC 031136
TAFAHN
TAF
KAHN 031136Z 0312/0412 28010KT 3SM SHRA BR SCT025 BKN040
     FM031400 25012KT P6SM SHRA BKN025 BKN050
      TEMPO 0316/0320 25015G25KT 4SM TSRA BKN015CB
     FM032100 27012KT 5SM TSRA BKN020CB
     FM040100 27008KT P6SM -SHRA BKN030 BKN080
     FM040600 26009KT P6SM OVC020=



000
FTUS42 KFFC 031136
TAFMCN
TAF
KMCN 031136Z 0312/0412 24008KT P6SM FEW010 BKN040
     FM031400 25012KT P6SM BKN025 BKN250
     FM031600 26012G18KT P6SM VCSH SCT040 BKN100
      TEMPO 0318/0322 4SM TSRA BKN025CB
     FM040100 27008KT P6SM SCT020 BKN040
     FM040600 26009KT P6SM OVC060=



000
FTUS42 KFFC 031136
TAFATL
TAF
KATL 031136Z 0312/0418 24012KT P6SM FEW010 BKN100
     FM031400 25012KT P6SM SHRA BKN025 BKN050
      TEMPO 0316/0320 25015G25KT 4SM TSRA BKN015CB
     FM032100 27012KT 5SM TSRA BKN020CB
     FM040100 27008KT P6SM -SHRA BKN030 BKN080
     FM040600 26009KT P6SM OVC020
     FM041200 25008KT P6SM SCT030 BKN060=



000
FTUS42 KFFC 031136
TAFAHN
TAF
KAHN 031136Z 0312/0412 28010KT 3SM SHRA BR SCT025 BKN040
     FM031400 25012KT P6SM SHRA BKN025 BKN050
      TEMPO 0316/0320 25015G25KT 4SM TSRA BKN015CB
     FM032100 27012KT 5SM TSRA BKN020CB
     FM040100 27008KT P6SM -SHRA BKN030 BKN080
     FM040600 26009KT P6SM OVC020=



000
FTUS42 KFFC 031136
TAFPDK
TAF
KPDK 031136Z 0312/0412 24010KT 6SM BR BKN010 OVC030
     FM031400 25012KT P6SM SHRA BKN025 BKN050
      TEMPO 0316/0320 25015G25KT 4SM TSRA BKN015CB
     FM032100 27012KT 5SM TSRA BKN020CB
     FM040100 27008KT P6SM -SHRA BKN030 BKN080
     FM040600 26009KT P6SM OVC020=



000
FTUS42 KFFC 031136
TAFRYY
TAF
KRYY 031136Z 0312/0412 24012KT 6SM BR SCT010 BKN040
     FM031330 25012KT P6SM SHRA BKN025 BKN050
      TEMPO 0316/0320 25015G25KT 4SM TSRA BKN015CB
     FM032100 27012KT 5SM TSRA BKN020CB
     FM040100 27008KT P6SM -SHRA BKN030 BKN080
     FM040600 26009KT P6SM OVC020=



000
FTUS42 KFFC 031136
TAFFTY
TAF
KFTY 031136Z 0312/0412 24010KT P6SM FEW007 BKN040
     FM031400 25012KT P6SM SHRA BKN025 BKN050
      TEMPO 0316/0320 25015G25KT 4SM TSRA BKN015CB
     FM032100 27012KT 5SM TSRA BKN020CB
     FM040100 27008KT P6SM -SHRA BKN030 BKN080
     FM040600 26009KT P6SM OVC020=



000
FTUS42 KFFC 031136
TAFCSG
TAF
KCSG 031136Z 0312/0412 25008KT P6SM BKN020 BKN100
     FM031400 25012KT P6SM BKN025 BKN250
     FM031600 26012G18KT P6SM VCSH SCT040 BKN100
      TEMPO 0318/0322 4SM TSRA BKN025CB
     FM040100 27008KT P6SM SCT020 BKN040
     FM040600 26009KT P6SM OVC060=



000
FTUS42 KFFC 031046 AAC
TAFAHN
TAF AMD
KAHN 031046Z 0311/0406 28012KT P6SM BKN020
      TEMPO 0311/0313 2SM TSRA BR BKN010CB
     FM031400 25012KT P6SM BKN025 BKN250
     FM031600 26015G25KT P6SM VCSH SCT050 BKN250 PROB30 0320/0323
      4SM TSRA BKN025CB
     FM040100 27008KT P6SM SCT040 BKN080=



000
FTUS42 KFFC 031024 AAC
TAFFTY
TAF AMD
KFTY 031024Z 0310/0406 22008KT P6SM FEW007 BKN030
      TEMPO 0310/0311 BKN007
     FM031200 23008KT P6SM BKN010
     FM031400 25012KT P6SM BKN025 BKN250
     FM031600 26015G25KT P6SM VCSH SCT050 BKN250 PROB30 0319/0323
      4SM TSRA BKN025CB
     FM040100 27008KT P6SM SCT040 BKN080=



000
FTUS42 KFFC 031019 AAD
TAFATL
TAF AMD
KATL 031019Z 0310/0412 24012KT P6SM SCT025 BKN070
      TEMPO 0310/0311 BKN010
     FM031200 23008KT P6SM BKN010
     FM031400 25012KT P6SM BKN025 BKN250
     FM031600 26015G25KT P6SM VCSH SCT050 BKN250 PROB30 0319/0323
      4SM TSRA BKN025CB
     FM040100 27008KT P6SM SCT040 BKN080
     FM040600 26009KT P6SM OVC015=



000
FTUS42 KFFC 031010 AAB
TAFAHN
TAF AMD
KAHN 031010Z 0310/0406 23005KT P6SM SCT010 BKN060
     FM031400 25012KT P6SM BKN025 BKN250
     FM031600 26015G25KT P6SM VCSH SCT050 BKN250 PROB30 0319/0323
      4SM TSRA BKN025CB
     FM040100 27008KT P6SM SCT040 BKN080=



000
FTUS42 KFFC 031010 AAB
TAFAHN
TAF AMD
KAHN 031010Z 0310/0406 23005KT P6SM SCT010 BKN060
     FM031400 25012KT P6SM BKN025 BKN250
     FM031600 26015G25KT P6SM VCSH SCT050 BKN250 PROB30 0319/0323
      4SM TSRA BKN025CB
     FM040100 27008KT P6SM SCT040 BKN080=



000
FTUS42 KFFC 031010 AAB
TAFCSG
TAF AMD
KCSG 031010Z 0310/0406 22008KT P6SM SCT010 BKN100
     FM031400 25012KT P6SM BKN025 BKN250
     FM031600 26012G18KT P6SM VCSH SCT050 BKN250 PROB30 0319/0323
      4SM TSRA BKN025CB
     FM040100 27008KT P6SM SCT040 BKN080=



000
FTUS42 KFFC 031010 AAB
TAFCSG
TAF AMD
KCSG 031010Z 0310/0406 22008KT P6SM SCT010 BKN100
     FM031400 25012KT P6SM BKN025 BKN250
     FM031600 26012G18KT P6SM VCSH SCT050 BKN250 PROB30 0319/0323
      4SM TSRA BKN025CB
     FM040100 27008KT P6SM SCT040 BKN080=



000
FTUS42 KFFC 031009 AAB
TAFPDK
TAF AMD
KPDK 031009Z 0310/0406 22009KT P6SM FEW060 BKN070
     FM031400 25012KT P6SM BKN025 BKN250
     FM031600 26015G25KT P6SM VCSH SCT050 BKN250 PROB30 0319/0323
      4SM TSRA BKN025CB
     FM040100 27008KT P6SM SCT040 BKN080=



000
FTUS42 KFFC 031009 AAB
TAFFTY
TAF AMD
KFTY 031009Z 0310/0406 22008KT P6SM FEW010 BKN070
     FM031400 25012KT P6SM BKN025 BKN250
     FM031600 26015G25KT P6SM VCSH SCT050 BKN250 PROB30 0319/0323
      4SM TSRA BKN025CB
     FM040100 27008KT P6SM SCT040 BKN080=



000
FTUS42 KFFC 031009 AAB
TAFPDK
TAF AMD
KPDK 031009Z 0310/0406 22009KT P6SM FEW060 BKN070
     FM031400 25012KT P6SM BKN025 BKN250
     FM031600 26015G25KT P6SM VCSH SCT050 BKN250 PROB30 0319/0323
      4SM TSRA BKN025CB
     FM040100 27008KT P6SM SCT040 BKN080=



000
FTUS42 KFFC 030929 AAC
TAFATL
TAF AMD
KATL 030929Z 0309/0412 24008KT P6SM SCT025 BKN070
      TEMPO 0309/0310 -SHRA BKN020
     FM031100 23008KT P6SM BKN010
     FM031400 25012KT P6SM BKN025 BKN250
     FM031600 26015G25KT P6SM VCSH SCT050 BKN250 PROB30 0319/0323
      4SM TSRA BKN025CB
     FM040100 27008KT P6SM SCT040 BKN080
     FM040600 26009KT P6SM OVC015=



000
FTUS42 KFFC 030914 AAB
TAFATL
TAF AMD
KATL 030914Z 0309/0412 24008KT P6SM SCT025 BKN070
      TEMPO 0309/0310 -SHRA BKN020
     FM031000 23008KT P6SM BKN010
     FM031400 25012KT P6SM BKN025 BKN250
     FM031600 26015G25KT P6SM VCSH SCT050 BKN250 PROB30 0319/0323
      4SM TSRA BKN025CB
     FM040100 27008KT P6SM SCT040 BKN080
     FM040600 26009KT P6SM OVC015=



000
FTUS42 KFFC 030913 AAC
TAFMCN
TAF AMD
KMCN 030913Z 0309/0406 24004KT 6SM HZ OVC010
     FM031400 25012KT P6SM BKN025 BKN250
     FM031600 26012G18KT P6SM VCSH SCT050 BKN250 PROB30 0318/0323
      4SM TSRA BKN025CB
     FM040100 27008KT P6SM SCT040 BKN080=



000
FTUS42 KFFC 030913 AAC
TAFMCN
TAF AMD
KMCN 030913Z 0309/0406 24004KT 6SM HZ OVC010
     FM031400 25012KT P6SM BKN025 BKN250
     FM031600 26012G18KT P6SM VCSH SCT050 BKN250 PROB30 0318/0323
      4SM TSRA BKN025CB
     FM040100 27008KT P6SM SCT040 BKN080=



000
FTUS42 KFFC 030912 AAB
TAFMCN
TAF AMD
KMCN 030912Z 0309/0406 24004KT 2SM BR OVC010
     FM031400 25012KT P6SM BKN025 BKN250
     FM031600 26012G18KT P6SM VCSH SCT050 BKN250 PROB30 0318/0323
      4SM TSRA BKN025CB
     FM040100 27008KT P6SM SCT040 BKN080=



000
FTUS42 KFFC 030912 AAA
TAFPDK
TAF AMD
KPDK 030912Z 0309/0406 24008KT P6SM FEW050 BKN070
     FM031000 23008KT P6SM BKN010
     FM031400 25012KT P6SM BKN025 BKN250
     FM031600 26015G25KT P6SM VCSH SCT050 BKN250 PROB30 0319/0323
      4SM TSRA BKN025CB
     FM040100 27008KT P6SM SCT040 BKN080=



000
FTUS42 KFFC 030912 AAB
TAFMCN
TAF AMD
KMCN 030912Z 0309/0406 24004KT 2SM BR OVC010
     FM031400 25012KT P6SM BKN025 BKN250
     FM031600 26012G18KT P6SM VCSH SCT050 BKN250 PROB30 0318/0323
      4SM TSRA BKN025CB
     FM040100 27008KT P6SM SCT040 BKN080=



000
FTUS42 KFFC 030911 AAA
TAFFTY
TAF AMD
KFTY 030911Z 0309/0406 24008KT P6SM BKN070
     FM031000 23008KT P6SM BKN010
     FM031400 25012KT P6SM BKN025 BKN250
     FM031600 26015G25KT P6SM VCSH SCT050 BKN250 PROB30 0319/0323
      4SM TSRA BKN025CB
     FM040100 27008KT P6SM SCT040 BKN080=



000
FTUS42 KFFC 030839 AAA
TAFAHN
TAF AMD
KAHN 030839Z 0309/0406 23005KT P6SM SCT004 BKN070
     FM031000 23008KT P6SM BKN010
     FM031400 25012KT P6SM BKN025 BKN250
     FM031600 26015G25KT P6SM VCSH SCT050 BKN250 PROB30 0319/0323
      4SM TSRA BKN025CB
     FM040100 27008KT P6SM SCT040 BKN080=



000
FTUS42 KFFC 030743 AAA
TAFCSG
TAF AMD
KCSG 030743Z 0308/0406 22008KT P6SM SCT010 BKN100
     FM031000 26006KT 3SM BR BKN010
     FM031400 25012KT P6SM BKN025 BKN250
     FM031600 26012G18KT P6SM VCSH SCT050 BKN250 PROB30 0318/0323
      4SM TSRA BKN025CB
     FM040100 27008KT P6SM SCT040 BKN080=



000
FTUS42 KFFC 030731 AAA
TAFATL
TAF AMD
KATL 030731Z 0308/0412 24008KT P6SM SCT040 BKN070
     FM031000 23008KT P6SM BKN010
     FM031400 25012KT P6SM BKN025 BKN250
     FM031600 26015G25KT P6SM VCSH SCT050 BKN250 PROB30 0319/0323
      4SM TSRA BKN025CB
     FM040100 27008KT P6SM SCT040 BKN080
     FM040600 26009KT P6SM OVC015=



000
FTUS42 KFFC 030731 AAA
TAFATL
TAF AMD
KATL 030731Z 0308/0412 24008KT P6SM SCT040 BKN070
     FM031000 23008KT P6SM BKN010
     FM031400 25012KT P6SM BKN025 BKN250
     FM031600 26015G25KT P6SM VCSH SCT050 BKN250 PROB30 0319/0323
      4SM TSRA BKN025CB
     FM040100 27008KT P6SM SCT040 BKN080
     FM040600 26009KT P6SM OVC015=



000
FTUS42 KFFC 030717 AAA
TAFMCN
TAF AMD
KMCN 030717Z 0307/0406 25006KT P6SM BKN008
     FM030900 22004KT 2SM BR OVC005
     FM031100 23004KT 3SM BR BKN010
     FM031400 25012KT P6SM BKN025 BKN250
     FM031600 26012G18KT P6SM VCSH SCT050 BKN250 PROB30 0318/0323
      4SM TSRA BKN025CB
     FM040100 27008KT P6SM SCT040 BKN080=



    US Dept of Commerce
    National Oceanic and Atmospheric Administration
    National Weather Service
    1325 East West Highway
    Silver Spring, MD 20910
    Page Author: NWS Internet Services Team
Disclaimer
Information Quality
Credits
Glossary
Privacy Policy
Freedom of Information Act (FOIA)
About Us
Career Opportunities